Observation data for Coyanosa on 04/17/2021      Previous  Date  Next       Current Mesonet Observations  Soil Data  Daily Summary Page  Observations in Plain Language
KCO1 170500Z 08010KT 11/06 A3008 RMK A01 T01130059  RH  069%=      5-min Rain = 0
KCO1 170501Z 08011KT 11/06 A3008 RMK A01 T01120059  RH  070%=      5-min Rain = 0
KCO1 170502Z 08010KT 11/06 A3008 RMK A01 T01120058  RH  070%=      5-min Rain = 0
KCO1 170503Z 08010KT 11/06 A3008 RMK A01 T01110058  RH  070%=      5-min Rain = 0
KCO1 170504Z 08009KT 11/06 A3008 RMK A01 T01120059  RH  070%=      5-min Rain = 0
KCO1 170505Z 08008KT 11/06 A3008 RMK A01 T01110058  RH  070%=      5-min Rain = 0
KCO1 170506Z 08008KT 11/06 A3008 RMK A01 T01100058  RH  070%=      5-min Rain = 0
KCO1 170507Z 08011KT 11/06 A3008 RMK A01 T01100059  RH  070%=      5-min Rain = 0
KCO1 170508Z 07010KT 11/06 A3009 RMK A01 T01100058  RH  070%=      5-min Rain = 0
KCO1 170509Z 08009KT 11/06 A3009 RMK A01 T01100058  RH  070%=      5-min Rain = 0
KCO1 170510Z 07011KT 11/06 A3009 RMK A01 T01100058  RH  070%=      5-min Rain = 0
KCO1 170511Z 07011KT 11/06 A3009 RMK A01 T01100058  RH  070%=      5-min Rain = 0
KCO1 170512Z 07010KT 11/06 A3009 RMK A01 T01100058  RH  070%=      5-min Rain = 0
KCO1 170513Z 08009KT 11/06 A3009 RMK A01 T01100057  RH  070%=      5-min Rain = 0
KCO1 170514Z 08009KT 11/06 A3009 RMK A01 T01100057  RH  070%=      5-min Rain = 0
KCO1 170515Z 07010KT 11/06 A3009 RMK A01 T01090057  RH  070%=      5-min Rain = 0
KCO1 170516Z 07009KT 11/06 A3009 RMK A01 T01090056  RH  070%=      5-min Rain = 0
KCO1 170517Z 07011KT 11/06 A3009 RMK A01 T01080056  RH  070%=      5-min Rain = 0
KCO1 170518Z 07011KT 11/06 A3009 RMK A01 T01080056  RH  070%=      5-min Rain = 0
KCO1 170519Z 07009KT 11/06 A3009 RMK A01 T01080056  RH  070%=      5-min Rain = 0
KCO1 170520Z 07010KT 11/06 A301 RMK A01 T01080056  RH  070%=      5-min Rain = 0
KCO1 170521Z 07008KT 11/06 A301 RMK A01 T01080056  RH  070%=      5-min Rain = 0
KCO1 170522Z 07007KT 11/06 A301 RMK A01 T01080056  RH  070%=      5-min Rain = 0
KCO1 170523Z 07007KT 11/06 A301 RMK A01 T01080055  RH  070%=      5-min Rain = 0
KCO1 170524Z 07007KT 11/06 A301 RMK A01 T01070056  RH  070%=      5-min Rain = 0
KCO1 170525Z 07009KT 11/06 A3009 RMK A01 T01060055  RH  071%=      5-min Rain = 0
KCO1 170526Z 07010KT 11/06 A3009 RMK A01 T01060055  RH  071%=      5-min Rain = 0
KCO1 170527Z 07010KT 11/06 A3009 RMK A01 T01060055  RH  071%=      5-min Rain = 0
KCO1 170528Z 07011KT 11/06 A3009 RMK A01 T01070055  RH  070%=      5-min Rain = 0
KCO1 170529Z 07009KT 11/06 A3009 RMK A01 T01070055  RH  070%=      5-min Rain = 0
KCO1 170530Z 06008KT 11/05 A3009 RMK A01 T01070054  RH  070%=      5-min Rain = 0
KCO1 170531Z 06010KT 11/06 A3009 RMK A01 T01070055  RH  070%=      5-min Rain = 0
KCO1 170532Z 06010KT 11/06 A301 RMK A01 T01070055  RH  070%=      5-min Rain = 0
KCO1 170533Z 06008KT 11/06 A301 RMK A01 T01070055  RH  070%=      5-min Rain = 0
KCO1 170534Z 06009KT 11/06 A301 RMK A01 T01070055  RH  070%=      5-min Rain = 0
KCO1 170535Z 07009KT 11/05 A301 RMK A01 T01060054  RH  070%=      5-min Rain = 0
KCO1 170536Z 07010KT 11/05 A301 RMK A01 T01060054  RH  070%=      5-min Rain = 0
KCO1 170537Z 07009KT 11/05 A301 RMK A01 T01060054  RH  070%=      5-min Rain = 0
KCO1 170538Z 06009KT 11/05 A301 RMK A01 T01060053  RH  070%=      5-min Rain = 0
KCO1 170539Z 06010KT 11/05 A301 RMK A01 T01060053  RH  070%=      5-min Rain = 0
KCO1 170540Z 06011KT 11/05 A3011 RMK A01 T01060053  RH  070%=      5-min Rain = 0
KCO1 170541Z 06009KT 11/05 A3011 RMK A01 T01060053  RH  070%=      5-min Rain = 0
KCO1 170542Z 07010KT 11/05 A3011 RMK A01 T01060053  RH  070%=      5-min Rain = 0
KCO1 170543Z 07011KT 11/05 A3011 RMK A01 T01060053  RH  070%=      5-min Rain = 0
KCO1 170544Z 06010KT 11/05 A3011 RMK A01 T01060053  RH  070%=      5-min Rain = 0
KCO1 170545Z 06009KT 11/05 A3011 RMK A01 T01060053  RH  070%=      5-min Rain = 0
KCO1 170546Z 07009KT 11/05 A3011 RMK A01 T01050053  RH  070%=      5-min Rain = 0
KCO1 170547Z 07009KT 11/05 A3012 RMK A01 T01050053  RH  070%=      5-min Rain = 0
KCO1 170548Z 07008KT 11/05 A3012 RMK A01 T01050052  RH  070%=      5-min Rain = 0
KCO1 170549Z 07008KT 10/05 A3012 RMK A01 T01040052  RH  070%=      5-min Rain = 0
KCO1 170550Z 07009KT 10/05 A3012 RMK A01 T01040052  RH  070%=      5-min Rain = 0
KCO1 170551Z 07007KT 10/05 A3012 RMK A01 T01040052  RH  070%=      5-min Rain = 0
KCO1 170552Z 07007KT 10/05 A3012 RMK A01 T01040052  RH  070%=      5-min Rain = 0
KCO1 170553Z 07006KT 10/05 A3012 RMK A01 T01040052  RH  070%=      5-min Rain = 0
KCO1 170554Z 07007KT 10/05 A3012 RMK A01 T01030051  RH  070%=      5-min Rain = 0
KCO1 170555Z 07008KT 10/05 A3012 RMK A01 T01020051  RH  071%=      5-min Rain = 0
KCO1 170556Z 08007KT 10/05 A3012 RMK A01 T01030052  RH  071%=      5-min Rain = 0
KCO1 170557Z 08007KT 10/05 A3012 RMK A01 T01030052  RH  071%=      5-min Rain = 0
KCO1 170558Z 07008KT 10/05 A3012 RMK A01 T01020052  RH  071%=      5-min Rain = 0
KCO1 170559Z 08008KT 10/05 A3012 RMK A01 T01020052  RH  071%=      5-min Rain = 0
KCO1 170600Z 08009KT 10/05 A3012 RMK A01 T01020052  RH  071%=      5-min Rain = 0
KCO1 170601Z 08008KT 10/05 A3012 RMK A01 T01020052  RH  071%=      5-min Rain = 0
KCO1 170602Z 07007KT 10/05 A3012 RMK A01 T01020052  RH  071%=      5-min Rain = 0
KCO1 170603Z 07007KT 10/05 A3012 RMK A01 T01020052  RH  071%=      5-min Rain = 0
KCO1 170604Z 07008KT 10/05 A3012 RMK A01 T01020052  RH  071%=      5-min Rain = 0
KCO1 170605Z 08008KT 10/05 A3012 RMK A01 T01020052  RH  071%=      5-min Rain = 0
KCO1 170606Z 07008KT 10/05 A3012 RMK A01 T01010051  RH  071%=      5-min Rain = 0
KCO1 170607Z 07006KT 10/05 A3012 RMK A01 T01010051  RH  071%=      5-min Rain = 0
KCO1 170608Z 07007KT 10/05 A3012 RMK A01 T01010051  RH  071%=      5-min Rain = 0
KCO1 170609Z 07006KT 10/05 A3012 RMK A01 T01010051  RH  071%=      5-min Rain = 0
KCO1 170610Z 07006KT 10/05 A3012 RMK A01 T01000051  RH  071%=      5-min Rain = 0
KCO1 170611Z 08006KT 10/05 A3013 RMK A01 T01000051  RH  072%=      5-min Rain = 0
KCO1 170612Z 08008KT 10/05 A3013 RMK A01 T01000051  RH  072%=      5-min Rain = 0
KCO1 170613Z 08009KT 10/05 A3013 RMK A01 T01000051  RH  072%=      5-min Rain = 0
KCO1 170614Z 08007KT 10/05 A3013 RMK A01 T01000050  RH  071%=      5-min Rain = 0
KCO1 170615Z 08006KT 10/05 A3013 RMK A01 T01000050  RH  071%=      5-min Rain = 0
KCO1 170616Z 08007KT 10/05 A3013 RMK A01 T01000050  RH  071%=      5-min Rain = 0
KCO1 170617Z 07006KT 10/05 A3013 RMK A01 T01000050  RH  071%=      5-min Rain = 0
KCO1 170618Z 08007KT 10/05 A3013 RMK A01 T01000050  RH  071%=      5-min Rain = 0
KCO1 170619Z 08005KT 10/05 A3013 RMK A01 T01000049  RH  071%=      5-min Rain = 0
KCO1 170620Z 08006KT 10/05 A3013 RMK A01 T01000049  RH  071%=      5-min Rain = 0
KCO1 170621Z 08006KT 10/05 A3013 RMK A01 T00990049  RH  071%=      5-min Rain = 0
KCO1 170622Z 08006KT 10/05 A3013 RMK A01 T00990049  RH  071%=      5-min Rain = 0
KCO1 170623Z 08006KT 10/05 A3013 RMK A01 T00990049  RH  071%=      5-min Rain = 0
KCO1 170624Z 09007KT 10/05 A3014 RMK A01 T00990049  RH  071%=      5-min Rain = 0
KCO1 170625Z 09007KT 10/05 A3014 RMK A01 T00980049  RH  071%=      5-min Rain = 0
KCO1 170626Z 09007KT 10/05 A3014 RMK A01 T00980049  RH  071%=      5-min Rain = 0
KCO1 170627Z 09006KT 10/05 A3014 RMK A01 T00980049  RH  071%=      5-min Rain = 0
KCO1 170628Z 08006KT 10/05 A3014 RMK A01 T00980049  RH  071%=      5-min Rain = 0
KCO1 170629Z 09007KT 10/05 A3014 RMK A01 T00990049  RH  071%=      5-min Rain = 0
KCO1 170630Z 08007KT 10/05 A3014 RMK A01 T00990049  RH  071%=      5-min Rain = 0
KCO1 170631Z 08007KT 10/05 A3014 RMK A01 T00990049  RH  071%=      5-min Rain = 0
KCO1 170632Z 08006KT 10/05 A3013 RMK A01 T01000049  RH  071%=      5-min Rain = 0
KCO1 170633Z 09007KT 10/05 A3013 RMK A01 T01000049  RH  071%=      5-min Rain = 0
KCO1 170634Z 08007KT 10/05 A3014 RMK A01 T01000048  RH  070%=      5-min Rain = 0
KCO1 170635Z 08005KT 10/05 A3014 RMK A01 T01000048  RH  070%=      5-min Rain = 0
KCO1 170636Z 08006KT 10/05 A3014 RMK A01 T01000049  RH  070%=      5-min Rain = 0
KCO1 170637Z 08006KT 10/05 A3014 RMK A01 T01000048  RH  070%=      5-min Rain = 0
KCO1 170638Z 08005KT 10/05 A3014 RMK A01 T01000048  RH  070%=      5-min Rain = 0
KCO1 170639Z 08005KT 10/05 A3014 RMK A01 T01000048  RH  070%=      5-min Rain = 0
KCO1 170640Z 08006KT 10/05 A3014 RMK A01 T01000048  RH  070%=      5-min Rain = 0
KCO1 170641Z 08005KT 10/05 A3014 RMK A01 T01000048  RH  070%=      5-min Rain = 0
KCO1 170642Z 08005KT 10/05 A3014 RMK A01 T01000048  RH  070%=      5-min Rain = 0
KCO1 170643Z 08005KT 10/05 A3014 RMK A01 T01000048  RH  070%=      5-min Rain = 0
KCO1 170644Z 08005KT 10/05 A3014 RMK A01 T01000048  RH  070%=      5-min Rain = 0
KCO1 170645Z 08005KT 10/05 A3014 RMK A01 T01000048  RH  070%=      5-min Rain = 0
KCO1 170646Z 08005KT 10/05 A3014 RMK A01 T01000048  RH  070%=      5-min Rain = 0
KCO1 170647Z 08006KT 10/05 A3014 RMK A01 T01000048  RH  070%=      5-min Rain = 0
KCO1 170648Z 08005KT 10/05 A3014 RMK A01 T01000048  RH  070%=      5-min Rain = 0
KCO1 170649Z 08006KT 10/05 A3014 RMK A01 T01000048  RH  070%=      5-min Rain = 0
KCO1 170650Z 07005KT 10/05 A3014 RMK A01 T01000048  RH  070%=      5-min Rain = 0
KCO1 170651Z 06005KT 10/05 A3014 RMK A01 T01000048  RH  070%=      5-min Rain = 0
KCO1 170652Z 06006KT 10/05 A3014 RMK A01 T01000048  RH  070%=      5-min Rain = 0
KCO1 170653Z 06006KT 10/05 A3014 RMK A01 T01000048  RH  070%=      5-min Rain = 0
KCO1 170654Z 06005KT 10/05 A3014 RMK A01 T01000047  RH  070%=      5-min Rain = 0
KCO1 170655Z 06005KT 10/05 A3014 RMK A01 T01000048  RH  070%=      5-min Rain = 0
KCO1 170656Z 06005KT 10/05 A3014 RMK A01 T00990048  RH  070%=      5-min Rain = 0
KCO1 170657Z 05005KT 10/05 A3014 RMK A01 T00990048  RH  070%=      5-min Rain = 0
KCO1 170658Z 05005KT 10/05 A3014 RMK A01 T00990048  RH  070%=      5-min Rain = 0
KCO1 170659Z 06004KT 10/05 A3014 RMK A01 T00990047  RH  070%=      5-min Rain = 0
KCO1 170700Z 06005KT 10/05 A3014 RMK A01 T00990048  RH  070%=      5-min Rain = 0
KCO1 170701Z 07005KT 10/05 A3014 RMK A01 T00990047  RH  070%=      5-min Rain = 0
KCO1 170702Z 07005KT 10/05 A3014 RMK A01 T00990047  RH  070%=      5-min Rain = 0
KCO1 170703Z 08004KT 10/05 A3015 RMK A01 T00990047  RH  070%=      5-min Rain = 0
KCO1 170704Z 08005KT 10/05 A3015 RMK A01 T00990047  RH  070%=      5-min Rain = 0
KCO1 170705Z 09005KT 10/05 A3015 RMK A01 T00990047  RH  070%=      5-min Rain = 0
KCO1 170706Z 08004KT 10/05 A3015 RMK A01 T00990047  RH  070%=      5-min Rain = 0
KCO1 170707Z 08005KT 10/05 A3016 RMK A01 T00990047  RH  070%=      5-min Rain = 0
KCO1 170708Z 08005KT 10/05 A3016 RMK A01 T00990047  RH  070%=      5-min Rain = 0
KCO1 170709Z 07004KT 10/05 A3016 RMK A01 T00990047  RH  070%=      5-min Rain = 0
KCO1 170710Z 07003KT 10/05 A3016 RMK A01 T01000047  RH  070%=      5-min Rain = 0
KCO1 170711Z 07004KT 10/05 A3016 RMK A01 T01000047  RH  070%=      5-min Rain = 0
KCO1 170712Z 07004KT 10/05 A3016 RMK A01 T01000047  RH  070%=      5-min Rain = 0
KCO1 170713Z 07004KT 10/05 A3016 RMK A01 T01000047  RH  070%=      5-min Rain = 0
KCO1 170714Z 07004KT 10/05 A3016 RMK A01 T01000047  RH  070%=      5-min Rain = 0
KCO1 170715Z 07004KT 10/05 A3016 RMK A01 T01000047  RH  070%=      5-min Rain = 0
KCO1 170716Z 06005KT 10/05 A3016 RMK A01 T01000047  RH  070%=      5-min Rain = 0
KCO1 170717Z 06005KT 10/05 A3016 RMK A01 T01000047  RH  069%=      5-min Rain = 0
KCO1 170718Z 06006KT 10/05 A3015 RMK A01 T01000047  RH  069%=      5-min Rain = 0
KCO1 170719Z 05006KT 10/05 A3015 RMK A01 T01000046  RH  069%=      5-min Rain = 0
KCO1 170720Z 05006KT 10/05 A3015 RMK A01 T01000046  RH  069%=      5-min Rain = 0
KCO1 170721Z 06006KT 10/05 A3015 RMK A01 T01000046  RH  069%=      5-min Rain = 0
KCO1 170722Z 06007KT 10/05 A3015 RMK A01 T01000046  RH  069%=      5-min Rain = 0
KCO1 170723Z 06005KT 10/05 A3015 RMK A01 T01000046  RH  069%=      5-min Rain = 0
KCO1 170724Z 06009KT 10/05 A3015 RMK A01 T01000046  RH  069%=      5-min Rain = 0
KCO1 170725Z 06007KT 10/05 A3015 RMK A01 T01000045  RH  069%=      5-min Rain = 0
KCO1 170726Z 06006KT 10/05 A3015 RMK A01 T01000045  RH  069%=      5-min Rain = 0
KCO1 170727Z 06007KT 10/04 A3015 RMK A01 T01000044  RH  068%=      5-min Rain = 0
KCO1 170728Z 07007KT 10/04 A3016 RMK A01 T01000044  RH  068%=      5-min Rain = 0
KCO1 170729Z 07007KT 10/04 A3016 RMK A01 T01000043  RH  068%=      5-min Rain = 0
KCO1 170730Z 06009KT 10/04 A3016 RMK A01 T01000043  RH  067%=      5-min Rain = 0
KCO1 170731Z 06008KT 10/04 A3016 RMK A01 T01000041  RH  067%=      5-min Rain = 0
KCO1 170732Z 05007KT 10/04 A3016 RMK A01 T01010041  RH  067%=      5-min Rain = 0
KCO1 170733Z 06008KT 10/04 A3016 RMK A01 T01010041  RH  066%=      5-min Rain = 0
KCO1 170734Z 06007KT 10/04 A3016 RMK A01 T01010041  RH  066%=      5-min Rain = 0
KCO1 170735Z 06007KT 10/04 A3016 RMK A01 T01010041  RH  066%=      5-min Rain = 0
KCO1 170736Z 06006KT 10/04 A3016 RMK A01 T01010041  RH  066%=      5-min Rain = 0
KCO1 170737Z 06007KT 10/04 A3016 RMK A01 T01010041  RH  067%=      5-min Rain = 0
KCO1 170738Z 06008KT 10/04 A3016 RMK A01 T01010041  RH  067%=      5-min Rain = 0
KCO1 170739Z 05007KT 10/04 A3016 RMK A01 T01010042  RH  067%=      5-min Rain = 0
KCO1 170740Z 05008KT 10/04 A3015 RMK A01 T01000042  RH  067%=      5-min Rain = 0
KCO1 170741Z 06008KT 10/04 A3015 RMK A01 T01000041  RH  067%=      5-min Rain = 0
KCO1 170742Z 06007KT 10/04 A3015 RMK A01 T01000042  RH  067%=      5-min Rain = 0
KCO1 170743Z 06007KT 10/04 A3015 RMK A01 T01000042  RH  067%=      5-min Rain = 0
KCO1 170744Z 06007KT 10/04 A3014 RMK A01 T01000042  RH  067%=      5-min Rain = 0
KCO1 170745Z 06008KT 10/04 A3014 RMK A01 T01000041  RH  067%=      5-min Rain = 0
KCO1 170746Z 05009KT 10/04 A3014 RMK A01 T01000041  RH  067%=      5-min Rain = 0
KCO1 170747Z 06011KT 10/04 A3014 RMK A01 T01000040  RH  066%=      5-min Rain = 0
KCO1 170748Z 06010KT 10/04 A3014 RMK A01 T00990038  RH  066%=      5-min Rain = 0
KCO1 170749Z 06011KT 10/04 A3014 RMK A01 T00990038  RH  065%=      5-min Rain = 0
KCO1 170750Z 06011KT 10/04 A3015 RMK A01 T00990037  RH  065%=      5-min Rain = 0
KCO1 170751Z 06010KT 10/04 A3015 RMK A01 T00990036  RH  065%=      5-min Rain = 0
KCO1 170752Z 06011KT 10/04 A3015 RMK A01 T00990036  RH  065%=      5-min Rain = 0
KCO1 170753Z 06011KT 10/04 A3015 RMK A01 T00990035  RH  064%=      5-min Rain = 0
KCO1 170754Z 06011KT 10/04 A3015 RMK A01 T00990035  RH  064%=      5-min Rain = 0
KCO1 170755Z 06012KT 10/04 A3015 RMK A01 T00990035  RH  064%=      5-min Rain = 0
KCO1 170756Z 06010KT 10/04 A3015 RMK A01 T00990035  RH  064%=      5-min Rain = 0
KCO1 170757Z 06011KT 10/03 A3014 RMK A01 T00990034  RH  064%=      5-min Rain = 0
KCO1 170758Z 06009KT 10/03 A3014 RMK A01 T00980033  RH  064%=      5-min Rain = 0
KCO1 170759Z 06010KT 10/03 A3014 RMK A01 T00990034  RH  064%=      5-min Rain = 0
KCO1 170800Z 06010KT 10/03 A3015 RMK A01 T00980034  RH  064%=      5-min Rain = 0
KCO1 170801Z 06011KT 10/03 A3015 RMK A01 T00980033  RH  064%=      5-min Rain = 0
KCO1 170802Z 05013KT 10/03 A3016 RMK A01 T00980032  RH  063%=      5-min Rain = 0
KCO1 170803Z 06010KT 10/03 A3016 RMK A01 T00980031  RH  063%=      5-min Rain = 0
KCO1 170804Z 05008KT 10/03 A3016 RMK A01 T00980031  RH  063%=      5-min Rain = 0
KCO1 170805Z 04013KT 10/03 A3016 RMK A01 T00980030  RH  063%=      5-min Rain = 0
KCO1 170806Z 04013KT 10/03 A3016 RMK A01 T00980028  RH  062%=      5-min Rain = 0
KCO1 170807Z 04011KT 10/03 A3016 RMK A01 T00970027  RH  061%=      5-min Rain = 0
KCO1 170808Z 04012KT 10/03 A3016 RMK A01 T00970025  RH  061%=      5-min Rain = 0
KCO1 170809Z 04011KT 10/03 A3016 RMK A01 T00970025  RH  061%=      5-min Rain = 0
KCO1 170810Z 04013KT 10/02 A3017 RMK A01 T00970024  RH  060%=      5-min Rain = 0
KCO1 170811Z 04014KT 10/02 A3016 RMK A01 T00960022  RH  060%=      5-min Rain = 0
KCO1 170812Z 04014KT 10/02 A3016 RMK A01 T00960022  RH  060%=      5-min Rain = 0
KCO1 170813Z 04013KT 10/02 A3016 RMK A01 T00950021  RH  060%=      5-min Rain = 0
KCO1 170814Z 04012KT 10/02 A3016 RMK A01 T00950022  RH  060%=      5-min Rain = 0
KCO1 170815Z 04010KT 10/02 A3017 RMK A01 T00950022  RH  060%=      5-min Rain = 0
KCO1 170816Z 04010KT 10/02 A3017 RMK A01 T00950022  RH  060%=      5-min Rain = 0
KCO1 170817Z 04010KT 10/02 A3016 RMK A01 T00950021  RH  060%=      5-min Rain = 0
KCO1 170818Z 04009KT 10/02 A3016 RMK A01 T00950021  RH  060%=      5-min Rain = 0
KCO1 170819Z 04012G17KT 10/02 A3016 RMK A01 T00950021  RH  060%=      5-min Rain = 0
KCO1 170820Z 04015KT 09/02 A3016 RMK A01 T00940020  RH  060%=      5-min Rain = 0
KCO1 170821Z 04013KT 09/02 A3016 RMK A01 T00940019  RH  059%=      5-min Rain = 0
KCO1 170822Z 04013KT 09/02 A3016 RMK A01 T00940019  RH  059%=      5-min Rain = 0
KCO1 170823Z 04013KT 09/02 A3016 RMK A01 T00930018  RH  059%=      5-min Rain = 0
KCO1 170824Z 04013KT 09/02 A3016 RMK A01 T00930018  RH  059%=      5-min Rain = 0
KCO1 170825Z 03012KT 09/02 A3016 RMK A01 T00930017  RH  059%=      5-min Rain = 0
KCO1 170826Z 03013KT 09/02 A3016 RMK A01 T00920017  RH  059%=      5-min Rain = 0
KCO1 170827Z 03013G18KT 09/02 A3016 RMK A01 T00920017  RH  059%=      5-min Rain = 0
KCO1 170828Z 04012KT 09/02 A3016 RMK A01 T00920017  RH  059%=      5-min Rain = 0
KCO1 170829Z 04010KT 09/02 A3017 RMK A01 T00920016  RH  059%=      5-min Rain = 0
KCO1 170830Z 03010KT 09/02 A3018 RMK A01 T00920016  RH  059%=      5-min Rain = 0
KCO1 170831Z 03010KT 09/02 A3018 RMK A01 T00920017  RH  059%=      5-min Rain = 0
KCO1 170832Z 03012KT 09/02 A3018 RMK A01 T00920016  RH  059%=      5-min Rain = 0
KCO1 170833Z 03012KT 09/02 A3018 RMK A01 T00920016  RH  059%=      5-min Rain = 0
KCO1 170834Z 03013KT 09/02 A3018 RMK A01 T00910016  RH  059%=      5-min Rain = 0
KCO1 170835Z 04013KT 09/02 A3017 RMK A01 T00910016  RH  059%=      5-min Rain = 0
KCO1 170836Z 04013KT 09/02 A3017 RMK A01 T00920016  RH  059%=      5-min Rain = 0
KCO1 170837Z 04013KT 09/02 A3017 RMK A01 T00920016  RH  059%=      5-min Rain = 0
KCO1 170838Z 04013KT 09/02 A3017 RMK A01 T00910016  RH  059%=      5-min Rain = 0
KCO1 170839Z 03011KT 09/02 A3017 RMK A01 T00910016  RH  059%=      5-min Rain = 0
KCO1 170840Z 03011KT 09/02 A3017 RMK A01 T00910016  RH  059%=      5-min Rain = 0
KCO1 170841Z 03012KT 09/02 A3017 RMK A01 T00910016  RH  059%=      5-min Rain = 0
KCO1 170842Z 03011KT 09/02 A3017 RMK A01 T00900016  RH  059%=      5-min Rain = 0
KCO1 170843Z 03011KT 09/02 A3018 RMK A01 T00910016  RH  060%=      5-min Rain = 0
KCO1 170844Z 03011KT 09/02 A3018 RMK A01 T00910016  RH  060%=      5-min Rain = 0
KCO1 170845Z 03011G16KT 09/02 A3018 RMK A01 T00910017  RH  060%=      5-min Rain = 0
KCO1 170846Z 03013KT 09/02 A3018 RMK A01 T00910016  RH  060%=      5-min Rain = 0
KCO1 170847Z 03014KT 09/02 A3018 RMK A01 T00900016  RH  060%=      5-min Rain = 0
KCO1 170848Z 03012KT 09/02 A3018 RMK A01 T00900016  RH  060%=      5-min Rain = 0
KCO1 170849Z 03011KT 09/02 A3017 RMK A01 T00900016  RH  060%=      5-min Rain = 0
KCO1 170850Z 03010KT 09/02 A3017 RMK A01 T00890016  RH  060%=      5-min Rain = 0
KCO1 170851Z 03010KT 09/02 A3017 RMK A01 T00900016  RH  060%=      5-min Rain = 0
KCO1 170852Z 04011KT 09/02 A3017 RMK A01 T00900017  RH  060%=      5-min Rain = 0
KCO1 170853Z 03010KT 09/02 A3017 RMK A01 T00900017  RH  060%=      5-min Rain = 0
KCO1 170854Z 03011KT 09/02 A3017 RMK A01 T00900017  RH  060%=      5-min Rain = 0
KCO1 170855Z 03012KT 09/02 A3017 RMK A01 T00900017  RH  060%=      5-min Rain = 0
KCO1 170856Z 03011KT 09/02 A3018 RMK A01 T00890017  RH  060%=      5-min Rain = 0
KCO1 170857Z 03012KT 09/02 A3017 RMK A01 T00890017  RH  060%=      5-min Rain = 0
KCO1 170858Z 04012KT 09/02 A3017 RMK A01 T00890017  RH  061%=      5-min Rain = 0
KCO1 170859Z 04010KT 09/02 A3017 RMK A01 T00890017  RH  061%=      5-min Rain = 0
KCO1 170900Z 04009KT 09/02 A3016 RMK A01 T00890018  RH  061%=      5-min Rain = 0
KCO1 170901Z 04009KT 09/02 A3016 RMK A01 T00880018  RH  061%=      5-min Rain = 0
KCO1 170902Z 03011KT 09/02 A3016 RMK A01 T00880018  RH  061%=      5-min Rain = 0
KCO1 170903Z 04012KT 09/02 A3017 RMK A01 T00880018  RH  062%=      5-min Rain = 0
KCO1 170904Z 03010KT 09/02 A3017 RMK A01 T00880019  RH  062%=      5-min Rain = 0
KCO1 170905Z 03009KT 09/02 A3017 RMK A01 T00880019  RH  062%=      5-min Rain = 0
KCO1 170906Z 03010KT 09/02 A3017 RMK A01 T00880019  RH  062%=      5-min Rain = 0
KCO1 170907Z 04012KT 09/02 A3016 RMK A01 T00880019  RH  062%=      5-min Rain = 0
KCO1 170908Z 04011KT 09/02 A3017 RMK A01 T00880019  RH  062%=      5-min Rain = 0
KCO1 170909Z 04009KT 09/02 A3017 RMK A01 T00870019  RH  062%=      5-min Rain = 0
KCO1 170910Z 04009KT 09/02 A3017 RMK A01 T00870019  RH  062%=      5-min Rain = 0
KCO1 170911Z 04008G13KT 09/02 A3017 RMK A01 T00870019  RH  062%=      5-min Rain = 0
KCO1 170912Z 04009KT 09/02 A3017 RMK A01 T00870019  RH  062%=      5-min Rain = 0
KCO1 170913Z 04010KT 09/02 A3017 RMK A01 T00880019  RH  062%=      5-min Rain = 0
KCO1 170914Z 04010KT 09/02 A3017 RMK A01 T00880019  RH  062%=      5-min Rain = 0
KCO1 170915Z 03009KT 09/02 A3017 RMK A01 T00870019  RH  062%=      5-min Rain = 0
KCO1 170916Z 04007KT 09/02 A3017 RMK A01 T00870019  RH  063%=      5-min Rain = 0
KCO1 170917Z 04007KT 09/02 A3018 RMK A01 T00870020  RH  063%=      5-min Rain = 0
KCO1 170918Z 04008KT 09/02 A3017 RMK A01 T00870020  RH  063%=      5-min Rain = 0
KCO1 170919Z 04008KT 09/02 A3017 RMK A01 T00870020  RH  063%=      5-min Rain = 0
KCO1 170920Z 04011KT 09/02 A3017 RMK A01 T00870020  RH  063%=      5-min Rain = 0
KCO1 170921Z 04010KT 09/02 A3017 RMK A01 T00870020  RH  063%=      5-min Rain = 0
KCO1 170922Z 04008KT 09/02 A3017 RMK A01 T00860020  RH  063%=      5-min Rain = 0
KCO1 170923Z 03010KT 09/02 A3018 RMK A01 T00870021  RH  063%=      5-min Rain = 0
KCO1 170924Z 03010KT 09/02 A3018 RMK A01 T00860021  RH  063%=      5-min Rain = 0
KCO1 170925Z 04011KT 09/02 A3018 RMK A01 T00860020  RH  063%=      5-min Rain = 0
KCO1 170926Z 03011KT 09/02 A3017 RMK A01 T00860021  RH  063%=      5-min Rain = 0
KCO1 170927Z 03012KT 09/02 A3017 RMK A01 T00860021  RH  063%=      5-min Rain = 0
KCO1 170928Z 03012KT 09/02 A3017 RMK A01 T00860021  RH  063%=      5-min Rain = 0
KCO1 170929Z 03012KT 09/02 A3017 RMK A01 T00860021  RH  064%=      5-min Rain = 0
KCO1 170930Z 03011KT 09/02 A3017 RMK A01 T00860021  RH  064%=      5-min Rain = 0
KCO1 170931Z 03011KT 09/02 A3017 RMK A01 T00860021  RH  064%=      5-min Rain = 0
KCO1 170932Z 03011KT 09/02 A3017 RMK A01 T00860021  RH  064%=      5-min Rain = 0
KCO1 170933Z 03010KT 09/02 A3017 RMK A01 T00850021  RH  064%=      5-min Rain = 0
KCO1 170934Z 03014KT 09/02 A3017 RMK A01 T00860021  RH  064%=      5-min Rain = 0
KCO1 170935Z 03012KT 09/02 A3017 RMK A01 T00850021  RH  064%=      5-min Rain = 0
KCO1 170936Z 03012KT 09/02 A3018 RMK A01 T00850021  RH  064%=      5-min Rain = 0
KCO1 170937Z 03009KT 09/02 A3018 RMK A01 T00850021  RH  064%=      5-min Rain = 0
KCO1 170938Z 03008KT 09/02 A3018 RMK A01 T00850020  RH  064%=      5-min Rain = 0
KCO1 170939Z 03009KT 09/02 A3018 RMK A01 T00850021  RH  064%=      5-min Rain = 0
KCO1 170940Z 04009KT 09/02 A3018 RMK A01 T00850021  RH  064%=      5-min Rain = 0
KCO1 170941Z 04009KT 09/02 A3018 RMK A01 T00850021  RH  064%=      5-min Rain = 0
KCO1 170942Z 04012KT 09/02 A3018 RMK A01 T00850020  RH  064%=      5-min Rain = 0
KCO1 170943Z 04012KT 09/02 A3018 RMK A01 T00850018  RH  063%=      5-min Rain = 0
KCO1 170944Z 04013KT 08/02 A3017 RMK A01 T00840017  RH  063%=      5-min Rain = 0
KCO1 170945Z 04013KT 08/02 A3017 RMK A01 T00840017  RH  063%=      5-min Rain = 0
KCO1 170946Z 04014KT 08/02 A3017 RMK A01 T00840016  RH  062%=      5-min Rain = 0
KCO1 170947Z 04015KT 08/02 A3017 RMK A01 T00840015  RH  062%=      5-min Rain = 0
KCO1 170948Z 04012KT 08/02 A3017 RMK A01 T00840015  RH  062%=      5-min Rain = 0
KCO1 170949Z 04011KT 08/02 A3017 RMK A01 T00840015  RH  062%=      5-min Rain = 0
KCO1 170950Z 04009KT 08/02 A3017 RMK A01 T00840015  RH  062%=      5-min Rain = 0
KCO1 170951Z 04010KT 08/02 A3017 RMK A01 T00830015  RH  062%=      5-min Rain = 0
KCO1 170952Z 04012KT 08/02 A3017 RMK A01 T00830015  RH  062%=      5-min Rain = 0
KCO1 170953Z 04010KT 08/02 A3017 RMK A01 T00830015  RH  062%=      5-min Rain = 0
KCO1 170954Z 04009KT 08/02 A3017 RMK A01 T00830016  RH  063%=      5-min Rain = 0
KCO1 170955Z 04008KT 08/02 A3017 RMK A01 T00830018  RH  063%=      5-min Rain = 0
KCO1 170956Z 04012KT 08/02 A3017 RMK A01 T00830018  RH  063%=      5-min Rain = 0
KCO1 170957Z 04013KT 08/02 A3017 RMK A01 T00830017  RH  063%=      5-min Rain = 0
KCO1 170958Z 04012KT 08/02 A3017 RMK A01 T00820017  RH  064%=      5-min Rain = 0
KCO1 170959Z 03011KT 08/02 A3017 RMK A01 T00820017  RH  064%=      5-min Rain = 0
KCO1 171000Z 04009KT 08/02 A3017 RMK A01 T00820018  RH  064%=      5-min Rain = 0
KCO1 171001Z 03009KT 08/02 A3017 RMK A01 T00820018  RH  064%=      5-min Rain = 0
KCO1 171002Z 03009KT 08/02 A3018 RMK A01 T00820017  RH  063%=      5-min Rain = 0
KCO1 171003Z 04009KT 08/02 A3018 RMK A01 T00820015  RH  063%=      5-min Rain = 0
KCO1 171004Z 04008KT 08/01 A3018 RMK A01 T00820014  RH  062%=      5-min Rain = 0
KCO1 171005Z 04009KT 08/01 A3018 RMK A01 T00820014  RH  062%=      5-min Rain = 0
KCO1 171006Z 04010KT 08/01 A3018 RMK A01 T00820014  RH  062%=      5-min Rain = 0
KCO1 171007Z 03009KT 08/01 A3018 RMK A01 T00820014  RH  062%=      5-min Rain = 0
KCO1 171008Z 03010KT 08/01 A3018 RMK A01 T00820014  RH  062%=      5-min Rain = 0
KCO1 171009Z 03010KT 08/01 A3018 RMK A01 T00820014  RH  062%=      5-min Rain = 0
KCO1 171010Z 04010KT 08/01 A3018 RMK A01 T00820014  RH  062%=      5-min Rain = 0
KCO1 171011Z 04011KT 08/02 A3018 RMK A01 T00820015  RH  063%=      5-min Rain = 0
KCO1 171012Z 04012KT 08/02 A3018 RMK A01 T00820015  RH  063%=      5-min Rain = 0
KCO1 171013Z 05010KT 08/02 A3018 RMK A01 T00810015  RH  063%=      5-min Rain = 0
KCO1 171014Z 04008KT 08/01 A3018 RMK A01 T00810014  RH  063%=      5-min Rain = 0
KCO1 171015Z 05009KT 08/01 A3018 RMK A01 T00810014  RH  063%=      5-min Rain = 0
KCO1 171016Z 05008KT 08/01 A3018 RMK A01 T00810014  RH  063%=      5-min Rain = 0
KCO1 171017Z 05007KT 08/01 A3018 RMK A01 T00810014  RH  063%=      5-min Rain = 0
KCO1 171018Z 05010KT 08/01 A3018 RMK A01 T00810014  RH  063%=      5-min Rain = 0
KCO1 171019Z 05011KT 08/01 A3017 RMK A01 T00810014  RH  063%=      5-min Rain = 0
KCO1 171020Z 04010KT 08/01 A3017 RMK A01 T00810014  RH  062%=      5-min Rain = 0
KCO1 171021Z 04011KT 08/01 A3017 RMK A01 T00810013  RH  062%=      5-min Rain = 0
KCO1 171022Z 05012KT 08/01 A3017 RMK A01 T00810012  RH  062%=      5-min Rain = 0
KCO1 171023Z 05009KT 08/01 A3017 RMK A01 T00810011  RH  061%=      5-min Rain = 0
KCO1 171024Z 05009KT 08/01 A3017 RMK A01 T00800010  RH  061%=      5-min Rain = 0
KCO1 171025Z 04011KT 08/01 A3018 RMK A01 T00810011  RH  061%=      5-min Rain = 0
KCO1 171026Z 05011KT 08/01 A3018 RMK A01 T00800011  RH  061%=      5-min Rain = 0
KCO1 171027Z 04011KT 08/01 A3018 RMK A01 T00800010  RH  061%=      5-min Rain = 0
KCO1 171028Z 04010G15KT 08/01 A3018 RMK A01 T00800010  RH  061%=      5-min Rain = 0
KCO1 171029Z 04012KT 08/01 A3018 RMK A01 T00800010  RH  061%=      5-min Rain = 0
KCO1 171030Z 05011KT 08/01 A3018 RMK A01 T00800009  RH  061%=      5-min Rain = 0
KCO1 171031Z 05011KT 08/01 A3018 RMK A01 T00800009  RH  061%=      5-min Rain = 0
KCO1 171032Z 05007G12KT 08/01 A3018 RMK A01 T00790009  RH  061%=      5-min Rain = 0
KCO1 171033Z 05013KT 08/01 A3018 RMK A01 T00800009  RH  061%=      5-min Rain = 0
KCO1 171034Z 05011KT 08/01 A3018 RMK A01 T00800009  RH  061%=      5-min Rain = 0
KCO1 171035Z 06009KT 08/01 A3018 RMK A01 T00800009  RH  061%=      5-min Rain = 0
KCO1 171036Z 05008KT 08/01 A3018 RMK A01 T00800010  RH  061%=      5-min Rain = 0
KCO1 171037Z 06009KT 08/01 A3018 RMK A01 T00790010  RH  061%=      5-min Rain = 0
KCO1 171038Z 05011KT 08/01 A3018 RMK A01 T00790009  RH  061%=      5-min Rain = 0
KCO1 171039Z 06011KT 08/01 A3019 RMK A01 T00800009  RH  061%=      5-min Rain = 0
KCO1 171040Z 05010KT 08/01 A3019 RMK A01 T00800009  RH  061%=      5-min Rain = 0
KCO1 171041Z 05011KT 08/01 A3019 RMK A01 T00800009  RH  061%=      5-min Rain = 0
KCO1 171042Z 05012KT 08/01 A3019 RMK A01 T00790009  RH  061%=      5-min Rain = 0
KCO1 171043Z 06011KT 08/01 A3019 RMK A01 T00790008  RH  061%=      5-min Rain = 0
KCO1 171044Z 06009KT 08/01 A3019 RMK A01 T00790008  RH  061%=      5-min Rain = 0
KCO1 171045Z 05009KT 08/01 A3019 RMK A01 T00790009  RH  061%=      5-min Rain = 0
KCO1 171046Z 06010KT 08/01 A3019 RMK A01 T00790009  RH  061%=      5-min Rain = 0
KCO1 171047Z 05010KT 08/01 A3019 RMK A01 T00790008  RH  061%=      5-min Rain = 0
KCO1 171048Z 05009KT 08/01 A3019 RMK A01 T00790008  RH  061%=      5-min Rain = 0
KCO1 171049Z 05011KT 08/01 A3019 RMK A01 T00790009  RH  061%=      5-min Rain = 0
KCO1 171050Z 05011KT 08/01 A3019 RMK A01 T00790009  RH  061%=      5-min Rain = 0
KCO1 171051Z 05009KT 08/01 A3019 RMK A01 T00790008  RH  061%=      5-min Rain = 0
KCO1 171052Z 05009KT 08/01 A3019 RMK A01 T00790008  RH  061%=      5-min Rain = 0
KCO1 171053Z 05011KT 08/01 A3019 RMK A01 T00790008  RH  061%=      5-min Rain = 0
KCO1 171054Z 05010KT 08/01 A3019 RMK A01 T00790008  RH  061%=      5-min Rain = 0
KCO1 171055Z 05010KT 08/01 A3019 RMK A01 T00790008  RH  061%=      5-min Rain = 0
KCO1 171056Z 05009KT 08/01 A3019 RMK A01 T00790008  RH  061%=      5-min Rain = 0
KCO1 171057Z 05010KT 08/01 A3019 RMK A01 T00790008  RH  061%=      5-min Rain = 0
KCO1 171058Z 05009KT 08/01 A3018 RMK A01 T00790008  RH  061%=      5-min Rain = 0
KCO1 171059Z 04008KT 08/01 A3018 RMK A01 T00790008  RH  061%=      5-min Rain = 0
KCO1 171100Z 04011KT 08/01 A3018 RMK A01 T00790008  RH  061%=      5-min Rain = 0
KCO1 171101Z 05007KT 08/01 A3018 RMK A01 T00790009  RH  061%=      5-min Rain = 0
KCO1 171102Z 05008KT 08/01 A3018 RMK A01 T00790009  RH  061%=      5-min Rain = 0
KCO1 171103Z 05010KT 08/01 A3018 RMK A01 T00790009  RH  061%=      5-min Rain = 0
KCO1 171104Z 05010KT 08/01 A3018 RMK A01 T00780009  RH  061%=      5-min Rain = 0
KCO1 171105Z 05009KT 08/01 A3018 RMK A01 T00780008  RH  061%=      5-min Rain = 0
KCO1 171106Z 05008KT 08/01 A3018 RMK A01 T00780009  RH  062%=      5-min Rain = 0
KCO1 171107Z 05007KT 08/01 A3018 RMK A01 T00780009  RH  062%=      5-min Rain = 0
KCO1 171108Z 05006KT 08/01 A3018 RMK A01 T00780009  RH  062%=      5-min Rain = 0
KCO1 171109Z 05007KT 08/01 A3018 RMK A01 T00780010  RH  062%=      5-min Rain = 0
KCO1 171110Z 05010KT 08/01 A3018 RMK A01 T00780009  RH  062%=      5-min Rain = 0
KCO1 171111Z 05008KT 08/01 A3018 RMK A01 T00780009  RH  062%=      5-min Rain = 0
KCO1 171112Z 04009KT 08/01 A3018 RMK A01 T00780010  RH  062%=      5-min Rain = 0
KCO1 171113Z 05008KT 08/01 A3019 RMK A01 T00780009  RH  061%=      5-min Rain = 0
KCO1 171114Z 05008KT 08/01 A3019 RMK A01 T00780009  RH  061%=      5-min Rain = 0
KCO1 171115Z 06010KT 08/01 A3019 RMK A01 T00780009  RH  061%=      5-min Rain = 0
KCO1 171116Z 05010KT 08/01 A3019 RMK A01 T00780008  RH  061%=      5-min Rain = 0
KCO1 171117Z 04008KT 08/01 A3019 RMK A01 T00780007  RH  061%=      5-min Rain = 0
KCO1 171118Z 04008KT 08/01 A3019 RMK A01 T00780007  RH  061%=      5-min Rain = 0
KCO1 171119Z 05012KT 08/01 A3019 RMK A01 T00780006  RH  061%=      5-min Rain = 0
KCO1 171120Z 05011KT 08/01 A3019 RMK A01 T00780006  RH  060%=      5-min Rain = 0
KCO1 171121Z 06009KT 08/01 A3019 RMK A01 T00780006  RH  060%=      5-min Rain = 0
KCO1 171122Z 05007KT 08/01 A3019 RMK A01 T00770006  RH  061%=      5-min Rain = 0
KCO1 171123Z 06006KT 08/01 A3019 RMK A01 T00770006  RH  061%=      5-min Rain = 0
KCO1 171124Z 06006KT 08/01 A3019 RMK A01 T00770006  RH  061%=      5-min Rain = 0
KCO1 171125Z 06006KT 08/01 A3019 RMK A01 T00780007  RH  061%=      5-min Rain = 0
KCO1 171126Z 06007KT 08/01 A3019 RMK A01 T00780007  RH  061%=      5-min Rain = 0
KCO1 171127Z 05008KT 08/01 A3019 RMK A01 T00780007  RH  061%=      5-min Rain = 0
KCO1 171128Z 05010KT 08/01 A3019 RMK A01 T00780007  RH  061%=      5-min Rain = 0
KCO1 171129Z 04011KT 08/01 A3019 RMK A01 T00780006  RH  061%=      5-min Rain = 0
KCO1 171130Z 05011KT 08/01 A3019 RMK A01 T00770006  RH  060%=      5-min Rain = 0
KCO1 171131Z 05010KT 08/01 A3019 RMK A01 T00770006  RH  060%=      5-min Rain = 0
KCO1 171132Z 05010KT 08/01 A3019 RMK A01 T00770006  RH  060%=      5-min Rain = 0
KCO1 171133Z 04010KT 08/01 A3019 RMK A01 T00770006  RH  060%=      5-min Rain = 0
KCO1 171134Z 05010KT 08/01 A3019 RMK A01 T00770005  RH  060%=      5-min Rain = 0
KCO1 171135Z 05012KT 08/01 A3019 RMK A01 T00770005  RH  060%=      5-min Rain = 0
KCO1 171136Z 05010KT 08/01 A3019 RMK A01 T00770005  RH  060%=      5-min Rain = 0
KCO1 171137Z 05010KT 08/00 A3019 RMK A01 T00770004  RH  060%=      5-min Rain = 0
KCO1 171138Z 05010KT 08/00 A3019 RMK A01 T00770003  RH  060%=      5-min Rain = 0
KCO1 171139Z 05010KT 08/00 A3019 RMK A01 T00770003  RH  060%=      5-min Rain = 0
KCO1 171140Z 05008KT 08/00 A3019 RMK A01 T00770003  RH  060%=      5-min Rain = 0
KCO1 171141Z 05009KT 08/00 A3019 RMK A01 T00770004  RH  060%=      5-min Rain = 0
KCO1 171142Z 05010KT 08/00 A3019 RMK A01 T00770003  RH  059%=      5-min Rain = 0
KCO1 171143Z 05007KT 08/00 A3019 RMK A01 T00770003  RH  059%=      5-min Rain = 0
KCO1 171144Z 05007KT 08/00 A3019 RMK A01 T00770002  RH  059%=      5-min Rain = 0
KCO1 171145Z 05010KT 08/00 A3019 RMK A01 T00770002  RH  059%=      5-min Rain = 0
KCO1 171146Z 04010KT 08/00 A3019 RMK A01 T00770002  RH  059%=      5-min Rain = 0
KCO1 171147Z 04011KT 08/00 A3019 RMK A01 T00770001  RH  059%=      5-min Rain = 0
KCO1 171148Z 05009KT 08/00 A3019 RMK A01 T00770001  RH  059%=      5-min Rain = 0
KCO1 171149Z 05011KT 08/00 A3019 RMK A01 T00760001  RH  059%=      5-min Rain = 0
KCO1 171150Z 06008KT 08/00 A3019 RMK A01 T00760001  RH  059%=      5-min Rain = 0
KCO1 171151Z 05009KT 08/00 A3019 RMK A01 T00760001  RH  059%=      5-min Rain = 0
KCO1 171152Z 05009KT 08/00 A3019 RMK A01 T00770001  RH  059%=      5-min Rain = 0
KCO1 171153Z 05010KT 08/00 A3019 RMK A01 T00760000  RH  059%=      5-min Rain = 0
KCO1 171154Z 05009KT 08/00 A3019 RMK A01 T00760000  RH  059%=      5-min Rain = 0
KCO1 171155Z 05010KT 08/00 A3019 RMK A01 T00760001  RH  059%=      5-min Rain = 0
KCO1 171156Z 06007KT 08/00 A3019 RMK A01 T00760001  RH  059%=      5-min Rain = 0
KCO1 171157Z 06008KT 08/00 A3019 RMK A01 T00760001  RH  059%=      5-min Rain = 0
KCO1 171158Z 06008KT 08/00 A3019 RMK A01 T00760002  RH  059%=      5-min Rain = 0
KCO1 171159Z 05008KT 08/00 A3019 RMK A01 T00760001  RH  059%=      5-min Rain = 0
KCO1 171200Z 04007KT 08/00 A3019 RMK A01 T00760001  RH  059%=      5-min Rain = 0
KCO1 171201Z 05008KT 08/00 A3019 RMK A01 T00770000  RH  058%=      5-min Rain = 0
KCO1 171202Z 05009KT 08/00 A302 RMK A01 T00770000  RH  058%=      5-min Rain = 0
KCO1 171203Z 04009KT 08/00 A302 RMK A01 T00760000  RH  059%=      5-min Rain = 0
KCO1 171204Z 05008KT 08/00 A302 RMK A01 T00760001  RH  059%=      5-min Rain = 0
KCO1 171205Z 05006KT 08/00 A302 RMK A01 T00770001  RH  059%=      5-min Rain = 0
KCO1 171206Z 06006KT 08/00 A302 RMK A01 T00760001  RH  059%=      5-min Rain = 0
KCO1 171207Z 06008KT 08/00 A302 RMK A01 T00760002  RH  059%=      5-min Rain = 0
KCO1 171208Z 06007KT 08/00 A302 RMK A01 T00760003  RH  060%=      5-min Rain = 0
KCO1 171209Z 06008KT 08/00 A302 RMK A01 T00760003  RH  060%=      5-min Rain = 0
KCO1 171210Z 06008KT 08/00 A302 RMK A01 T00770003  RH  060%=      5-min Rain = 0
KCO1 171211Z 06007KT 08/00 A302 RMK A01 T00760004  RH  060%=      5-min Rain = 0
KCO1 171212Z 06006KT 08/00 A302 RMK A01 T00760004  RH  060%=      5-min Rain = 0
KCO1 171213Z 06006KT 08/01 A302 RMK A01 T00770005  RH  060%=      5-min Rain = 0
KCO1 171214Z 07005KT 08/01 A302 RMK A01 T00760005  RH  061%=      5-min Rain = 0
KCO1 171215Z 06006KT 08/01 A302 RMK A01 T00760005  RH  061%=      5-min Rain = 0
KCO1 171216Z 07007KT 08/01 A302 RMK A01 T00760006  RH  061%=      5-min Rain = 0
KCO1 171217Z 06007KT 08/01 A302 RMK A01 T00760005  RH  061%=      5-min Rain = 0
KCO1 171218Z 05007KT 08/01 A302 RMK A01 T00760005  RH  061%=      5-min Rain = 0
KCO1 171219Z 07007KT 08/01 A302 RMK A01 T00760005  RH  061%=      5-min Rain = 0
KCO1 171220Z 07008KT 08/00 A302 RMK A01 T00760004  RH  060%=      5-min Rain = 0
KCO1 171221Z 06008KT 08/00 A302 RMK A01 T00760004  RH  060%=      5-min Rain = 0
KCO1 171222Z 06008KT 08/00 A302 RMK A01 T00760003  RH  060%=      5-min Rain = 0
KCO1 171223Z 05008KT 08/00 A302 RMK A01 T00760003  RH  060%=      5-min Rain = 0
KCO1 171224Z 05007KT 08/00 A302 RMK A01 T00760003  RH  060%=      5-min Rain = 0
KCO1 171225Z 06008KT 08/00 A302 RMK A01 T00760002  RH  060%=      5-min Rain = 0
KCO1 171226Z 06008KT 08/00 A302 RMK A01 T00760002  RH  059%=      5-min Rain = 0
KCO1 171227Z 06009KT 08/00 A302 RMK A01 T00760002  RH  059%=      5-min Rain = 0
KCO1 171228Z 06008KT 08/00 A302 RMK A01 T00760001  RH  059%=      5-min Rain = 0
KCO1 171229Z 06007KT 08/00 A302 RMK A01 T00760001  RH  059%=      5-min Rain = 0
KCO1 171230Z 06008KT 08/00 A302 RMK A01 T00760001  RH  059%=      5-min Rain = 0
KCO1 171231Z 06007KT 08/00 A302 RMK A01 T00760001  RH  059%=      5-min Rain = 0
KCO1 171232Z 06009KT 08/00 A302 RMK A01 T00760000  RH  059%=      5-min Rain = 0
KCO1 171233Z 06008KT 08/00 A302 RMK A01 T007600-0  RH  059%=      5-min Rain = 0
KCO1 171234Z 06007KT 08/00 A302 RMK A01 T00760000  RH  059%=      5-min Rain = 0
KCO1 171235Z 06006KT 08/00 A302 RMK A01 T00760000  RH  059%=      5-min Rain = 0
KCO1 171236Z 06007KT 08/00 A302 RMK A01 T00760000  RH  059%=      5-min Rain = 0
KCO1 171237Z 06005KT 08/00 A302 RMK A01 T00760001  RH  059%=      5-min Rain = 0
KCO1 171238Z 06005KT 08/00 A302 RMK A01 T00770001  RH  059%=      5-min Rain = 0
KCO1 171239Z 05006KT 08/00 A302 RMK A01 T00770001  RH  059%=      5-min Rain = 0
KCO1 171240Z 06006KT 08/00 A302 RMK A01 T00770001  RH  059%=      5-min Rain = 0
KCO1 171241Z 06005KT 08/00 A302 RMK A01 T00770001  RH  058%=      5-min Rain = 0
KCO1 171242Z 06005KT 08/00 A302 RMK A01 T00770001  RH  059%=      5-min Rain = 0
KCO1 171243Z 06006KT 08/00 A302 RMK A01 T00770001  RH  059%=      5-min Rain = 0
KCO1 171244Z 06008KT 08/00 A3021 RMK A01 T00780001  RH  058%=      5-min Rain = 0
KCO1 171245Z 07008KT 08/00 A302 RMK A01 T00780001  RH  058%=      5-min Rain = 0
KCO1 171246Z 06008KT 08/00 A302 RMK A01 T00780001  RH  058%=      5-min Rain = 0
KCO1 171247Z 05007KT 08/00 A302 RMK A01 T00780001  RH  058%=      5-min Rain = 0
KCO1 171248Z 06007KT 08/00 A302 RMK A01 T00780001  RH  058%=      5-min Rain = 0
KCO1 171249Z 06007KT 08/00 A3021 RMK A01 T00780001  RH  058%=      5-min Rain = 0
KCO1 171250Z 07006KT 08/00 A3021 RMK A01 T00780001  RH  058%=      5-min Rain = 0
KCO1 171251Z 06006KT 08/00 A3021 RMK A01 T00780001  RH  058%=      5-min Rain = 0
KCO1 171252Z 06006KT 08/00 A3021 RMK A01 T00780001  RH  058%=      5-min Rain = 0
KCO1 171253Z 06005KT 08/00 A3021 RMK A01 T00780001  RH  058%=      5-min Rain = 0
KCO1 171254Z 06006KT 08/00 A3021 RMK A01 T00780002  RH  058%=      5-min Rain = 0
KCO1 171255Z 07006KT 08/00 A3021 RMK A01 T00780001  RH  058%=      5-min Rain = 0
KCO1 171256Z 07007KT 08/00 A3021 RMK A01 T00780001  RH  058%=      5-min Rain = 0
KCO1 171257Z 06008KT 08/00 A3021 RMK A01 T00780001  RH  058%=      5-min Rain = 0
KCO1 171258Z 06007KT 08/00 A3021 RMK A01 T00780001  RH  058%=      5-min Rain = 0
KCO1 171259Z 06006KT 08/00 A3021 RMK A01 T00770001  RH  059%=      5-min Rain = 0
KCO1 171300Z 06006KT 08/00 A3021 RMK A01 T00770001  RH  059%=      5-min Rain = 0
KCO1 171301Z 05006KT 08/00 A3021 RMK A01 T00770001  RH  059%=      5-min Rain = 0
KCO1 171302Z 05007KT 08/00 A3021 RMK A01 T00770001  RH  059%=      5-min Rain = 0
KCO1 171303Z 05007KT 08/00 A3021 RMK A01 T00770001  RH  059%=      5-min Rain = 0
KCO1 171304Z 05007KT 08/00 A3022 RMK A01 T00770001  RH  059%=      5-min Rain = 0
KCO1 171305Z 05005KT 08/00 A3022 RMK A01 T00770001  RH  059%=      5-min Rain = 0
KCO1 171306Z 05005KT 08/00 A3022 RMK A01 T00760001  RH  059%=      5-min Rain = 0
KCO1 171307Z 05006KT 08/00 A3022 RMK A01 T00770002  RH  059%=      5-min Rain = 0
KCO1 171308Z 05007KT 08/00 A3022 RMK A01 T00770002  RH  059%=      5-min Rain = 0
KCO1 171309Z 06005KT 08/00 A3022 RMK A01 T00770002  RH  059%=      5-min Rain = 0
KCO1 171310Z 06006KT 08/00 A3022 RMK A01 T00770002  RH  059%=      5-min Rain = 0
KCO1 171311Z 07005KT 08/00 A3022 RMK A01 T00770003  RH  059%=      5-min Rain = 0
KCO1 171312Z 07007KT 08/00 A3022 RMK A01 T00780003  RH  059%=      5-min Rain = 0
KCO1 171313Z 06008KT 08/00 A3022 RMK A01 T00780002  RH  059%=      5-min Rain = 0
KCO1 171314Z 06009KT 08/00 A3022 RMK A01 T00780002  RH  058%=      5-min Rain = 0
KCO1 171315Z 06008KT 08/00 A3022 RMK A01 T00770001  RH  058%=      5-min Rain = 0
KCO1 171316Z 07007KT 08/00 A3022 RMK A01 T00770001  RH  059%=      5-min Rain = 0
KCO1 171317Z 06008KT 08/00 A3022 RMK A01 T00770002  RH  059%=      5-min Rain = 0
KCO1 171318Z 07007KT 08/00 A3022 RMK A01 T00780002  RH  059%=      5-min Rain = 0
KCO1 171319Z 07007KT 08/00 A3022 RMK A01 T00780002  RH  059%=      5-min Rain = 0
KCO1 171320Z 07007KT 08/00 A3022 RMK A01 T00770001  RH  059%=      5-min Rain = 0
KCO1 171321Z 07007KT 08/00 A3022 RMK A01 T00780001  RH  058%=      5-min Rain = 0
KCO1 171322Z 07007KT 08/00 A3022 RMK A01 T00770001  RH  058%=      5-min Rain = 0
KCO1 171323Z 07006KT 08/00 A3022 RMK A01 T00770001  RH  059%=      5-min Rain = 0
KCO1 171324Z 07006KT 08/00 A3022 RMK A01 T00770001  RH  059%=      5-min Rain = 0
KCO1 171325Z 06007KT 08/00 A3022 RMK A01 T00770001  RH  058%=      5-min Rain = 0
KCO1 171326Z 06006KT 08/00 A3022 RMK A01 T00770001  RH  058%=      5-min Rain = 0
KCO1 171327Z 06005KT 08/00 A3022 RMK A01 T00780001  RH  058%=      5-min Rain = 0
KCO1 171328Z 06005KT 08/00 A3022 RMK A01 T00780002  RH  059%=      5-min Rain = 0
KCO1 171329Z 05007KT 08/00 A3022 RMK A01 T00780002  RH  059%=      5-min Rain = 0
KCO1 171330Z 05007KT 08/00 A3022 RMK A01 T00790002  RH  058%=      5-min Rain = 0
KCO1 171331Z 05006KT 08/00 A3022 RMK A01 T00790001  RH  058%=      5-min Rain = 0
KCO1 171332Z 06006KT 08/00 A3022 RMK A01 T00790001  RH  058%=      5-min Rain = 0
KCO1 171333Z 07007KT 08/00 A3022 RMK A01 T00790001  RH  058%=      5-min Rain = 0
KCO1 171334Z 06007KT 08/00 A3022 RMK A01 T00790001  RH  058%=      5-min Rain = 0
KCO1 171335Z 06005KT 08/00 A3022 RMK A01 T00790000  RH  058%=      5-min Rain = 0
KCO1 171336Z 05007KT 08/00 A3022 RMK A01 T00790000  RH  058%=      5-min Rain = 0
KCO1 171337Z 06006KT 08/00 A3022 RMK A01 T00790001  RH  058%=      5-min Rain = 0
KCO1 171338Z 06005KT 08/00 A3022 RMK A01 T00800001  RH  057%=      5-min Rain = 0
KCO1 171339Z 07006KT 08/00 A3022 RMK A01 T00800001  RH  057%=      5-min Rain = 0
KCO1 171340Z 06005KT 08/00 A3022 RMK A01 T00800001  RH  057%=      5-min Rain = 0
KCO1 171341Z 06005KT 08/00 A3022 RMK A01 T00800001  RH  057%=      5-min Rain = 0
KCO1 171342Z 07006KT 08/00 A3023 RMK A01 T00800001  RH  058%=      5-min Rain = 0
KCO1 171343Z 07007KT 08/00 A3023 RMK A01 T00800001  RH  057%=      5-min Rain = 0
KCO1 171344Z 06008KT 08/00 A3022 RMK A01 T00800000  RH  057%=      5-min Rain = 0
KCO1 171345Z 05006KT 08/00 A3022 RMK A01 T00810000  RH  057%=      5-min Rain = 0
KCO1 171346Z 04005KT 08/00 A3022 RMK A01 T008000-0  RH  057%=      5-min Rain = 0
KCO1 171347Z 05005KT 08/00 A3023 RMK A01 T00810000  RH  057%=      5-min Rain = 0
KCO1 171348Z 04007KT 08/00 A3023 RMK A01 T00820001  RH  057%=      5-min Rain = 0
KCO1 171349Z 03006KT 08/00 A3023 RMK A01 T008200-0  RH  056%=      5-min Rain = 0
KCO1 171350Z 03006KT 08/00 A3023 RMK A01 T008200-0  RH  056%=      5-min Rain = 0
KCO1 171351Z 04006KT 08/00 A3023 RMK A01 T008200-0  RH  056%=      5-min Rain = 0
KCO1 171352Z 04006KT 08/M00 A3023 RMK A01 T00821001  RH  056%=      5-min Rain = 0
KCO1 171353Z 03005KT 08/M00 A3023 RMK A01 T00811002  RH  056%=      5-min Rain = 0
KCO1 171354Z 04005KT 08/M00 A3023 RMK A01 T00811001  RH  056%=      5-min Rain = 0
KCO1 171355Z 06005KT 08/M00 A3023 RMK A01 T00811001  RH  056%=      5-min Rain = 0
KCO1 171356Z 06005KT 08/M00 A3023 RMK A01 T00811001  RH  056%=      5-min Rain = 0
KCO1 171357Z 04005KT 08/M00 A3023 RMK A01 T00811001  RH  056%=      5-min Rain = 0
KCO1 171358Z 03006KT 08/M00 A3023 RMK A01 T00811001  RH  056%=      5-min Rain = 0
KCO1 171359Z 03006KT 08/M00 A3023 RMK A01 T00811001  RH  056%=      5-min Rain = 0
KCO1 171400Z 02006KT 08/M00 A3023 RMK A01 T00821001  RH  056%=      5-min Rain = 0
KCO1 171401Z 02006KT 08/M00 A3023 RMK A01 T00821001  RH  056%=      5-min Rain = 0
KCO1 171402Z 02007KT 08/M00 A3023 RMK A01 T00811001  RH  056%=      5-min Rain = 0
KCO1 171403Z 03008KT 08/M00 A3023 RMK A01 T00821001  RH  056%=      5-min Rain = 0
KCO1 171404Z 04007KT 08/M00 A3024 RMK A01 T00821001  RH  056%=      5-min Rain = 0
KCO1 171405Z 04008KT 08/M00 A3024 RMK A01 T00841001  RH  055%=      5-min Rain = 0
KCO1 171406Z 04006KT 08/M00 A3024 RMK A01 T00841001  RH  055%=      5-min Rain = 0
KCO1 171407Z 02008KT 08/M00 A3024 RMK A01 T00841001  RH  055%=      5-min Rain = 0
KCO1 171408Z 02008KT 08/M00 A3024 RMK A01 T00841002  RH  055%=      5-min Rain = 0
KCO1 171409Z 03008KT 08/M00 A3024 RMK A01 T00841003  RH  054%=      5-min Rain = 0
KCO1 171410Z 02007KT 08/M01 A3024 RMK A01 T00841005  RH  054%=      5-min Rain = 0
KCO1 171411Z 01007KT 08/M01 A3023 RMK A01 T00841006  RH  053%=      5-min Rain = 0
KCO1 171412Z 04006KT 08/M01 A3023 RMK A01 T00841006  RH  053%=      5-min Rain = 0
KCO1 171413Z 04007KT 09/M01 A3023 RMK A01 T00851006  RH  053%=      5-min Rain = 0
KCO1 171414Z 05006KT 09/M01 A3023 RMK A01 T00851006  RH  053%=      5-min Rain = 0
KCO1 171415Z 05008KT 09/M01 A3023 RMK A01 T00851007  RH  052%=      5-min Rain = 0
KCO1 171416Z 06006KT 09/M01 A3023 RMK A01 T00851007  RH  052%=      5-min Rain = 0
KCO1 171417Z 05007KT 09/M01 A3023 RMK A01 T00871006  RH  052%=      5-min Rain = 0
KCO1 171418Z 06007KT 09/M01 A3023 RMK A01 T00871006  RH  052%=      5-min Rain = 0
KCO1 171419Z 02009KT 09/M01 A3023 RMK A01 T00881007  RH  052%=      5-min Rain = 0
KCO1 171420Z 02009KT 09/M01 A3023 RMK A01 T00871008  RH  051%=      5-min Rain = 0
KCO1 171421Z 03008KT 09/M01 A3023 RMK A01 T00871008  RH  051%=      5-min Rain = 0
KCO1 171422Z 05008KT 09/M01 A3023 RMK A01 T00871007  RH  052%=      5-min Rain = 0
KCO1 171423Z 05008KT 09/M01 A3023 RMK A01 T00881006  RH  052%=      5-min Rain = 0
KCO1 171424Z 04008KT 09/M01 A3023 RMK A01 T00881007  RH  051%=      5-min Rain = 0
KCO1 171425Z 05010KT 09/M01 A3023 RMK A01 T00881006  RH  052%=      5-min Rain = 0
KCO1 171426Z 06009KT 09/M01 A3023 RMK A01 T00881006  RH  052%=      5-min Rain = 0
KCO1 171427Z 06009KT 09/M01 A3023 RMK A01 T00881008  RH  051%=      5-min Rain = 0
KCO1 171428Z 04008KT 09/M01 A3023 RMK A01 T00871008  RH  051%=      5-min Rain = 0
KCO1 171429Z 04008KT 09/M01 A3023 RMK A01 T00881010  RH  050%=      5-min Rain = 0
KCO1 171430Z 05008KT 09/M01 A3023 RMK A01 T00861012  RH  050%=      5-min Rain = 0
KCO1 171431Z 06010KT 09/M01 A3023 RMK A01 T00851011  RH  051%=      5-min Rain = 0
KCO1 171432Z 05008KT 09/M01 A3023 RMK A01 T00861011  RH  051%=      5-min Rain = 0
KCO1 171433Z 04010KT 09/M01 A3023 RMK A01 T00861009  RH  051%=      5-min Rain = 0
KCO1 171434Z 04011KT 09/M01 A3023 RMK A01 T00871011  RH  050%=      5-min Rain = 0
KCO1 171435Z 05012KT 09/M01 A3023 RMK A01 T00871011  RH  050%=      5-min Rain = 0
KCO1 171436Z 04010KT 09/M01 A3023 RMK A01 T00871011  RH  050%=      5-min Rain = 0
KCO1 171437Z 05009KT 09/M01 A3023 RMK A01 T00871010  RH  050%=      5-min Rain = 0
KCO1 171438Z 06010KT 09/M01 A3023 RMK A01 T00871009  RH  051%=      5-min Rain = 0
KCO1 171439Z 04010KT 09/M01 A3023 RMK A01 T00881009  RH  051%=      5-min Rain = 0
KCO1 171440Z 04011KT 09/M01 A3023 RMK A01 T00901010  RH  050%=      5-min Rain = 0
KCO1 171441Z 05011KT 09/M01 A3023 RMK A01 T00901010  RH  049%=      5-min Rain = 0
KCO1 171442Z 05012KT 09/M01 A3023 RMK A01 T00901010  RH  049%=      5-min Rain = 0
KCO1 171443Z 05014KT 09/M01 A3023 RMK A01 T00901010  RH  050%=      5-min Rain = 0
KCO1 171444Z 05014KT 09/M01 A3023 RMK A01 T00901010  RH  050%=      5-min Rain = 0
KCO1 171445Z 05012KT 09/M01 A3023 RMK A01 T00891013  RH  049%=      5-min Rain = 0
KCO1 171446Z 05011KT 09/M01 A3023 RMK A01 T00891013  RH  049%=      5-min Rain = 0
KCO1 171447Z 06011KT 09/M01 A3023 RMK A01 T00891010  RH  050%=      5-min Rain = 0
KCO1 171448Z 07010KT 09/M01 A3023 RMK A01 T00901010  RH  049%=      5-min Rain = 0
KCO1 171449Z 07010KT 09/M01 A3023 RMK A01 T00901011  RH  049%=      5-min Rain = 0
KCO1 171450Z 07009KT 09/M01 A3023 RMK A01 T00891011  RH  049%=      5-min Rain = 0
KCO1 171451Z 07009KT 09/M01 A3023 RMK A01 T00891011  RH  049%=      5-min Rain = 0
KCO1 171452Z 07010KT 09/M01 A3023 RMK A01 T00901011  RH  049%=      5-min Rain = 0
KCO1 171453Z 07009KT 09/M01 A3023 RMK A01 T00901011  RH  049%=      5-min Rain = 0
KCO1 171454Z 07008KT 09/M01 A3023 RMK A01 T00901011  RH  049%=      5-min Rain = 0
KCO1 171455Z 07009KT 09/M01 A3023 RMK A01 T00891011  RH  049%=      5-min Rain = 0
KCO1 171456Z 06009KT 09/M01 A3024 RMK A01 T00901012  RH  049%=      5-min Rain = 0
KCO1 171457Z 06009KT 09/M01 A3023 RMK A01 T00891012  RH  049%=      5-min Rain = 0
KCO1 171458Z 07009KT 09/M01 A3024 RMK A01 T00901011  RH  049%=      5-min Rain = 0
KCO1 171459Z 07008KT 09/M01 A3023 RMK A01 T00911010  RH  049%=      5-min Rain = 0
KCO1 171500Z 07010KT 09/M01 A3024 RMK A01 T00921011  RH  048%=      5-min Rain = 0
KCO1 171501Z 07010KT 09/M01 A3024 RMK A01 T00911012  RH  049%=      5-min Rain = 0
KCO1 171502Z 07009KT 09/M01 A3023 RMK A01 T00911011  RH  049%=      5-min Rain = 0
KCO1 171503Z 07009KT 09/M01 A3023 RMK A01 T00901011  RH  049%=      5-min Rain = 0
KCO1 171504Z 08008KT 09/M01 A3023 RMK A01 T00901010  RH  049%=      5-min Rain = 0
KCO1 171505Z 07007KT 09/M01 A3023 RMK A01 T00901010  RH  049%=      5-min Rain = 0
KCO1 171506Z 05007KT 09/M01 A3023 RMK A01 T00901009  RH  050%=      5-min Rain = 0
KCO1 171507Z 05007KT 09/M01 A3023 RMK A01 T00911010  RH  049%=      5-min Rain = 0
KCO1 171508Z 03008KT 09/M01 A3023 RMK A01 T00911010  RH  049%=      5-min Rain = 0
KCO1 171509Z 03008KT 09/M01 A3023 RMK A01 T00901011  RH  049%=      5-min Rain = 0
KCO1 171510Z 05009KT 09/M01 A3023 RMK A01 T00911009  RH  050%=      5-min Rain = 0
KCO1 171511Z 05009KT 09/M01 A3023 RMK A01 T00921009  RH  049%=      5-min Rain = 0
KCO1 171512Z 05007KT 09/M01 A3023 RMK A01 T00911010  RH  049%=      5-min Rain = 0
KCO1 171513Z 06009KT 09/M01 A3023 RMK A01 T00911009  RH  049%=      5-min Rain = 0
KCO1 171514Z 05008KT 09/M01 A3023 RMK A01 T00911009  RH  049%=      5-min Rain = 0
KCO1 171515Z 04008KT 09/M01 A3023 RMK A01 T00911009  RH  049%=      5-min Rain = 0
KCO1 171516Z 03008KT 09/M01 A3023 RMK A01 T00921010  RH  049%=      5-min Rain = 0
KCO1 171517Z 02007KT 09/M01 A3023 RMK A01 T00911011  RH  049%=      5-min Rain = 0
KCO1 171518Z 05007KT 09/M01 A3023 RMK A01 T00901010  RH  049%=      5-min Rain = 0
KCO1 171519Z 06008KT 09/M01 A3023 RMK A01 T00911009  RH  049%=      5-min Rain = 0
KCO1 171520Z 07005KT 09/M01 A3023 RMK A01 T00921009  RH  049%=      5-min Rain = 0
KCO1 171521Z 07006KT 09/M01 A3023 RMK A01 T00921009  RH  049%=      5-min Rain = 0
KCO1 171522Z 06007KT 09/M01 A3023 RMK A01 T00931009  RH  049%=      5-min Rain = 0
KCO1 171523Z 07005KT 09/M01 A3023 RMK A01 T00931009  RH  049%=      5-min Rain = 0
KCO1 171524Z 08006KT 09/M01 A3023 RMK A01 T00931009  RH  049%=      5-min Rain = 0
KCO1 171525Z 07006KT 09/M01 A3023 RMK A01 T00931009  RH  049%=      5-min Rain = 0
KCO1 171526Z 06005KT 09/M01 A3023 RMK A01 T00931008  RH  049%=      5-min Rain = 0
KCO1 171527Z 04006KT 09/M01 A3023 RMK A01 T00931008  RH  049%=      5-min Rain = 0
KCO1 171528Z 02006KT 09/M01 A3023 RMK A01 T00921008  RH  050%=      5-min Rain = 0
KCO1 171529Z 03005KT 09/M01 A3023 RMK A01 T00911008  RH  050%=      5-min Rain = 0
KCO1 171530Z 04007KT 09/M01 A3023 RMK A01 T00901007  RH  050%=      5-min Rain = 0
KCO1 171531Z 04006KT 09/M00 A3023 RMK A01 T00931004  RH  051%=      5-min Rain = 0
KCO1 171532Z 02008KT 10/M00 A3023 RMK A01 T00951004  RH  050%=      5-min Rain = 0
KCO1 171533Z 03007KT 09/M01 A3023 RMK A01 T00941006  RH  050%=      5-min Rain = 0
KCO1 171534Z 05007KT 09/M01 A3023 RMK A01 T00931006  RH  050%=      5-min Rain = 0
KCO1 171535Z 05006KT 09/M01 A3023 RMK A01 T00931005  RH  050%=      5-min Rain = 0
KCO1 171536Z 05006KT 09/M00 A3023 RMK A01 T00941004  RH  050%=      5-min Rain = 0
KCO1 171537Z 02005KT 10/M00 A3023 RMK A01 T00961003  RH  050%=      5-min Rain = 0
KCO1 171538Z 02009KT 10/M00 A3023 RMK A01 T00971003  RH  050%=      5-min Rain = 0
KCO1 171539Z 02007KT 10/M01 A3023 RMK A01 T00961005  RH  049%=      5-min Rain = 0
KCO1 171540Z 35006KT 10/M01 A3022 RMK A01 T00951005  RH  050%=      5-min Rain = 0
KCO1 171541Z 01006KT 09/M01 A3022 RMK A01 T00931006  RH  050%=      5-min Rain = 0
KCO1 171542Z 02005KT 09/M01 A3023 RMK A01 T00921005  RH  050%=      5-min Rain = 0
KCO1 171543Z 05009KT 09/M00 A3023 RMK A01 T00941004  RH  051%=      5-min Rain = 0
KCO1 171544Z 04007KT 10/M00 A3023 RMK A01 T00971003  RH  050%=      5-min Rain = 0
KCO1 171545Z 04006KT 10/M00 A3023 RMK A01 T00991003  RH  049%=      5-min Rain = 0
KCO1 171546Z 02011KT 10/M00 A3023 RMK A01 T01011004  RH  048%=      5-min Rain = 0
KCO1 171547Z 02010KT 10/M01 A3023 RMK A01 T01001007  RH  047%=      5-min Rain = 0
KCO1 171548Z 02011KT 10/M01 A3023 RMK A01 T00991008  RH  047%=      5-min Rain = 0
KCO1 171549Z 03010KT 10/M01 A3023 RMK A01 T00981009  RH  047%=      5-min Rain = 0
KCO1 171550Z 04009KT 10/M01 A3023 RMK A01 T00971010  RH  047%=      5-min Rain = 0
KCO1 171551Z 02009KT 10/M01 A3023 RMK A01 T00961009  RH  048%=      5-min Rain = 0
KCO1 171552Z 02010KT 10/M01 A3023 RMK A01 T00991007  RH  048%=      5-min Rain = 0
KCO1 171553Z 02011KT 10/M01 A3023 RMK A01 T01001008  RH  047%=      5-min Rain = 0
KCO1 171554Z 03010KT 10/M01 A3023 RMK A01 T00981010  RH  047%=      5-min Rain = 0
KCO1 171555Z 02008KT 10/M01 A3023 RMK A01 T00961010  RH  047%=      5-min Rain = 0
KCO1 171556Z 02006KT 10/M01 A3023 RMK A01 T00961009  RH  048%=      5-min Rain = 0
KCO1 171557Z 04008KT 10/M01 A3023 RMK A01 T00981007  RH  048%=      5-min Rain = 0
KCO1 171558Z 06008KT 10/M01 A3022 RMK A01 T01001008  RH  047%=      5-min Rain = 0
KCO1 171559Z 03010KT 10/M01 A3022 RMK A01 T01011008  RH  047%=      5-min Rain = 0
KCO1 171600Z 03008KT 10/M01 A3022 RMK A01 T01021007  RH  046%=      5-min Rain = 0
KCO1 171601Z 02008KT 10/M01 A3022 RMK A01 T01031008  RH  046%=      5-min Rain = 0
KCO1 171602Z 05008KT 10/M01 A3022 RMK A01 T01011009  RH  046%=      5-min Rain = 0
KCO1 171603Z 05005KT 10/M01 A3022 RMK A01 T01001009  RH  046%=      5-min Rain = 0
KCO1 171604Z 03007KT 10/M01 A3022 RMK A01 T01011009  RH  047%=      5-min Rain = 0
KCO1 171605Z 05007KT 10/M01 A3022 RMK A01 T01011008  RH  046%=      5-min Rain = 0
KCO1 171606Z 06009KT 10/M01 A3022 RMK A01 T01031008  RH  046%=      5-min Rain = 0
KCO1 171607Z 06009KT 10/M01 A3023 RMK A01 T01041010  RH  045%=      5-min Rain = 0
KCO1 171608Z 05006KT 10/M01 A3023 RMK A01 T01031011  RH  045%=      5-min Rain = 0
KCO1 171609Z 04009KT 10/M01 A3022 RMK A01 T01041011  RH  045%=      5-min Rain = 0
KCO1 171610Z 03008KT 10/M01 A3022 RMK A01 T01011012  RH  045%=      5-min Rain = 0
KCO1 171611Z 06008KT 10/M01 A3022 RMK A01 T01021010  RH  046%=      5-min Rain = 0
KCO1 171612Z 07008KT 10/M01 A3022 RMK A01 T01031009  RH  046%=      5-min Rain = 0
KCO1 171613Z 06008KT 10/M01 A3022 RMK A01 T01041009  RH  045%=      5-min Rain = 0
KCO1 171614Z 07009KT 11/M01 A3022 RMK A01 T01061008  RH  045%=      5-min Rain = 0
KCO1 171615Z 06008KT 11/M01 A3022 RMK A01 T01061009  RH  045%=      5-min Rain = 0
KCO1 171616Z 04013KT 11/M01 A3022 RMK A01 T01061009  RH  045%=      5-min Rain = 0
KCO1 171617Z 03010KT 11/M01 A3022 RMK A01 T01061010  RH  044%=      5-min Rain = 0
KCO1 171618Z 03010KT 10/M01 A3022 RMK A01 T01031012  RH  045%=      5-min Rain = 0
KCO1 171619Z 03012KT 10/M01 A3022 RMK A01 T01011012  RH  045%=      5-min Rain = 0
KCO1 171620Z 02012KT 10/M01 A3022 RMK A01 T01011010  RH  046%=      5-min Rain = 0
KCO1 171621Z 02010KT 10/M01 A3022 RMK A01 T01021010  RH  046%=      5-min Rain = 0
KCO1 171622Z 02010KT 10/M01 A3022 RMK A01 T01031009  RH  046%=      5-min Rain = 0
KCO1 171623Z 02009KT 10/M01 A3022 RMK A01 T01021010  RH  046%=      5-min Rain = 0
KCO1 171624Z 01007KT 10/M01 A3022 RMK A01 T01011010  RH  046%=      5-min Rain = 0
KCO1 171625Z 02008KT 10/M01 A3022 RMK A01 T01011009  RH  046%=      5-min Rain = 0
KCO1 171626Z 02006KT 10/M01 A3022 RMK A01 T01021009  RH  046%=      5-min Rain = 0
KCO1 171627Z 02006KT 10/M01 A3022 RMK A01 T01041008  RH  046%=      5-min Rain = 0
KCO1 171628Z 05004KT 10/M01 A3022 RMK A01 T01041010  RH  045%=      5-min Rain = 0
KCO1 171629Z 07007KT 10/M01 A3022 RMK A01 T01041008  RH  046%=      5-min Rain = 0
KCO1 171630Z 07006KT 11/M01 A3022 RMK A01 T01071007  RH  045%=      5-min Rain = 0
KCO1 171631Z 04009KT 11/M01 A3022 RMK A01 T01081008  RH  045%=      5-min Rain = 0
KCO1 171632Z 04008KT 11/M01 A3022 RMK A01 T01071010  RH  044%=      5-min Rain = 0
KCO1 171633Z 03008KT 11/M01 A3022 RMK A01 T01051011  RH  044%=      5-min Rain = 0
KCO1 171634Z 02007KT 10/M01 A3022 RMK A01 T01041011  RH  045%=      5-min Rain = 0
KCO1 171635Z 02006KT 10/M01 A3022 RMK A01 T01041011  RH  045%=      5-min Rain = 0
KCO1 171636Z 05008KT 10/M01 A3022 RMK A01 T01041009  RH  045%=      5-min Rain = 0
KCO1 171637Z 03010KT 11/M01 A3022 RMK A01 T01051010  RH  045%=      5-min Rain = 0
KCO1 171638Z 03010KT 10/M01 A3022 RMK A01 T01041010  RH  045%=      5-min Rain = 0
KCO1 171639Z 04007KT 10/M01 A3022 RMK A01 T01031011  RH  045%=      5-min Rain = 0
KCO1 171640Z 05006KT 10/M01 A3022 RMK A01 T01021010  RH  046%=      5-min Rain = 0
KCO1 171641Z 04006KT 10/M01 A3022 RMK A01 T01031010  RH  046%=      5-min Rain = 0
KCO1 171642Z 02006KT 10/M01 A3021 RMK A01 T01031010  RH  045%=      5-min Rain = 0
KCO1 171643Z 35007KT 10/M01 A3021 RMK A01 T01031009  RH  046%=      5-min Rain = 0
KCO1 171644Z 01007KT 10/M01 A3021 RMK A01 T01031009  RH  046%=      5-min Rain = 0
KCO1 171645Z 04008KT 10/M01 A3021 RMK A01 T01031009  RH  046%=      5-min Rain = 0
KCO1 171646Z 04006KT 10/M01 A3021 RMK A01 T01041009  RH  046%=      5-min Rain = 0
KCO1 171647Z 02008KT 10/M01 A3021 RMK A01 T01041009  RH  045%=      5-min Rain = 0
KCO1 171648Z 01009KT 10/M01 A3021 RMK A01 T01041009  RH  045%=      5-min Rain = 0
KCO1 171649Z 03011KT 11/M01 A3021 RMK A01 T01051009  RH  045%=      5-min Rain = 0
KCO1 171650Z 05011KT 11/M01 A3021 RMK A01 T01071008  RH  045%=      5-min Rain = 0
KCO1 171651Z 05010KT 11/M01 A3021 RMK A01 T01081010  RH  044%=      5-min Rain = 0
KCO1 171652Z 05008KT 11/M01 A3021 RMK A01 T01071011  RH  044%=      5-min Rain = 0
KCO1 171653Z 06007KT 11/M01 A3021 RMK A01 T01051012  RH  044%=      5-min Rain = 0
KCO1 171654Z 06006KT 10/M01 A3021 RMK A01 T01041012  RH  044%=      5-min Rain = 0
KCO1 171655Z 06005KT 10/M01 A3021 RMK A01 T01041012  RH  045%=      5-min Rain = 0
KCO1 171656Z 05007KT 11/M01 A3021 RMK A01 T01051010  RH  045%=      5-min Rain = 0
KCO1 171657Z 04010KT 11/M01 A3021 RMK A01 T01061009  RH  045%=      5-min Rain = 0
KCO1 171658Z 04007KT 11/M01 A3021 RMK A01 T01051010  RH  045%=      5-min Rain = 0
KCO1 171659Z 01008KT 10/M01 A3021 RMK A01 T01041010  RH  045%=      5-min Rain = 0
KCO1 171700Z 02010KT 10/M01 A3021 RMK A01 T01031010  RH  045%=      5-min Rain = 0
KCO1 171701Z 04009KT 10/M01 A3021 RMK A01 T01031009  RH  046%=      5-min Rain = 0
KCO1 171702Z 01009KT 11/M01 A3021 RMK A01 T01051009  RH  045%=      5-min Rain = 0
KCO1 171703Z 01010KT 11/M01 A3021 RMK A01 T01071007  RH  045%=      5-min Rain = 0
KCO1 171704Z 00007KT 11/M01 A3021 RMK A01 T01081008  RH  044%=      5-min Rain = 0
KCO1 171705Z 02008KT 11/M01 A3021 RMK A01 T01061009  RH  045%=      5-min Rain = 0
KCO1 171706Z 03008KT 11/M01 A3021 RMK A01 T01071008  RH  045%=      5-min Rain = 0
KCO1 171707Z 03007KT 11/M01 A3021 RMK A01 T01101006  RH  044%=      5-min Rain = 0
KCO1 171708Z 03005KT 11/M01 A3021 RMK A01 T01091009  RH  044%=      5-min Rain = 0
KCO1 171709Z 03007KT 11/M01 A3021 RMK A01 T01091008  RH  044%=      5-min Rain = 0
KCO1 171710Z 03009KT 11/M01 A3021 RMK A01 T01081009  RH  044%=      5-min Rain = 0
KCO1 171711Z 03009KT 11/M01 A3021 RMK A01 T01071009  RH  044%=      5-min Rain = 0
KCO1 171712Z 04009KT 11/M01 A3021 RMK A01 T01081008  RH  044%=      5-min Rain = 0
KCO1 171713Z 03007KT 11/M01 A3021 RMK A01 T01111008  RH  044%=      5-min Rain = 0
KCO1 171714Z 04006KT 11/M01 A3021 RMK A01 T01091010  RH  044%=      5-min Rain = 0
KCO1 171715Z 04007KT 11/M01 A3021 RMK A01 T01071010  RH  044%=      5-min Rain = 0
KCO1 171716Z 03008KT 11/M01 A3021 RMK A01 T01081009  RH  044%=      5-min Rain = 0
KCO1 171717Z 02005KT 11/M01 A3021 RMK A01 T01081009  RH  044%=      5-min Rain = 0
KCO1 171718Z 01007KT 11/M01 A3021 RMK A01 T01091008  RH  044%=      5-min Rain = 0
KCO1 171719Z 02007KT 11/M01 A3021 RMK A01 T01101008  RH  044%=      5-min Rain = 0
KCO1 171720Z 02006KT 11/M01 A3021 RMK A01 T01081010  RH  044%=      5-min Rain = 0
KCO1 171721Z 03006KT 11/M01 A3021 RMK A01 T01071009  RH  045%=      5-min Rain = 0
KCO1 171722Z 05009KT 11/M01 A3021 RMK A01 T01081008  RH  045%=      5-min Rain = 0
KCO1 171723Z 06007KT 11/M01 A3021 RMK A01 T01111007  RH  044%=      5-min Rain = 0
KCO1 171724Z 06006KT 11/M01 A3021 RMK A01 T01131008  RH  043%=      5-min Rain = 0
KCO1 171725Z 04008KT 12/M01 A3021 RMK A01 T01151006  RH  043%=      5-min Rain = 0
KCO1 171726Z 04008KT 12/M01 A3021 RMK A01 T01171006  RH  043%=      5-min Rain = 0
KCO1 171727Z 04009KT 12/M01 A3021 RMK A01 T01201005  RH  042%=      5-min Rain = 0
KCO1 171728Z 03007KT 12/M01 A3021 RMK A01 T01211008  RH  041%=      5-min Rain = 0
KCO1 171729Z 04007KT 12/M01 A3021 RMK A01 T01151012  RH  041%=      5-min Rain = 0
KCO1 171730Z 03010KT 11/M01 A3021 RMK A01 T01141009  RH  042%=      5-min Rain = 0
KCO1 171731Z 06005KT 12/M01 A3021 RMK A01 T01161007  RH  042%=      5-min Rain = 0
KCO1 171732Z 05007KT 12/M01 A3021 RMK A01 T01171009  RH  042%=      5-min Rain = 0
KCO1 171733Z 03009KT 12/M01 A3021 RMK A01 T01171008  RH  042%=      5-min Rain = 0
KCO1 171734Z 03008KT 12/M01 A3021 RMK A01 T01181009  RH  041%=      5-min Rain = 0
KCO1 171735Z 04009KT 12/M01 A302 RMK A01 T01191008  RH  041%=      5-min Rain = 0
KCO1 171736Z 05009KT 12/M01 A302 RMK A01 T01211008  RH  041%=      5-min Rain = 0
KCO1 171737Z 02008KT 12/M01 A302 RMK A01 T01211009  RH  041%=      5-min Rain = 0
KCO1 171738Z 01005KT 12/M01 A302 RMK A01 T01211009  RH  040%=      5-min Rain = 0
KCO1 171739Z 35006KT 12/M01 A302 RMK A01 T01201008  RH  041%=      5-min Rain = 0
KCO1 171740Z 01004KT 12/M01 A302 RMK A01 T01181010  RH  041%=      5-min Rain = 0
KCO1 171741Z 01004KT 12/M01 A302 RMK A01 T01181009  RH  041%=      5-min Rain = 0
KCO1 171742Z 05007KT 12/M01 A302 RMK A01 T01201006  RH  042%=      5-min Rain = 0
KCO1 171743Z 07010KT 13/M00 A302 RMK A01 T01261004  RH  041%=      5-min Rain = 0
KCO1 171744Z 05010KT 13/M01 A302 RMK A01 T01301005  RH  039%=      5-min Rain = 0
KCO1 171745Z 05009KT 13/M01 A302 RMK A01 T01301009  RH  038%=      5-min Rain = 0
KCO1 171746Z 03006KT 12/M01 A302 RMK A01 T01221014  RH  039%=      5-min Rain = 0
KCO1 171747Z 00003KT 12/M01 A302 RMK A01 T01161014  RH  040%=      5-min Rain = 0
KCO1 171748Z 03006KT 11/M01 A302 RMK A01 T01121013  RH  042%=      5-min Rain = 0
KCO1 171749Z 03007G12KT 11/M01 A302 RMK A01 T01121010  RH  043%=      5-min Rain = 0
KCO1 171750Z 04011KT 11/M01 A302 RMK A01 T01141009  RH  043%=      5-min Rain = 0
KCO1 171751Z 03007G12KT 12/M01 A302 RMK A01 T01171009  RH  042%=      5-min Rain = 0
KCO1 171752Z 02005KT 12/M01 A302 RMK A01 T01161012  RH  041%=      5-min Rain = 0
KCO1 171753Z 03011KT 12/M01 A302 RMK A01 T01161010  RH  042%=      5-min Rain = 0
KCO1 171754Z 03011KT 12/M01 A302 RMK A01 T01201008  RH  041%=      5-min Rain = 0
KCO1 171755Z 03007KT 12/M01 A302 RMK A01 T01191011  RH  041%=      5-min Rain = 0
KCO1 171756Z 36005KT 12/M01 A302 RMK A01 T01181011  RH  041%=      5-min Rain = 0
KCO1 171757Z 36005KT 12/M01 A302 RMK A01 T01171010  RH  041%=      5-min Rain = 0
KCO1 171758Z 35003KT 12/M01 A302 RMK A01 T01171010  RH  041%=      5-min Rain = 0
KCO1 171759Z 03003KT 12/M01 A3019 RMK A01 T01171011  RH  041%=      5-min Rain = 0
KCO1 171800Z 07004KT 12/M01 A3019 RMK A01 T01181010  RH  041%=      5-min Rain = 0
KCO1 171801Z 00009KT 12/M01 A3019 RMK A01 T01201008  RH  041%=      5-min Rain = 0
KCO1 171802Z 02012KT 12/M01 A3019 RMK A01 T01241005  RH  041%=      5-min Rain = 0
KCO1 171803Z 01010KT 12/M01 A3019 RMK A01 T01231009  RH  040%=      5-min Rain = 0
KCO1 171804Z 01008KT 12/M01 A3019 RMK A01 T01221008  RH  041%=      5-min Rain = 0
KCO1 171805Z 35007KT 12/M01 A3019 RMK A01 T01231008  RH  040%=      5-min Rain = 0
KCO1 171806Z 04006KT 12/M01 A3019 RMK A01 T01201010  RH  040%=      5-min Rain = 0
KCO1 171807Z 06011KT 12/M01 A3019 RMK A01 T01191010  RH  041%=      5-min Rain = 0
KCO1 171808Z 06009KT 12/M01 A3019 RMK A01 T01201011  RH  040%=      5-min Rain = 0
KCO1 171809Z 06010KT 12/M01 A3019 RMK A01 T01221011  RH  040%=      5-min Rain = 0
KCO1 171810Z 06011KT 12/M01 A3019 RMK A01 T01221012  RH  040%=      5-min Rain = 0
KCO1 171811Z 05006KT 12/M01 A3019 RMK A01 T01211012  RH  040%=      5-min Rain = 0
KCO1 171812Z 04010KT 12/M01 A3019 RMK A01 T01181013  RH  040%=      5-min Rain = 0
KCO1 171813Z 05009KT 12/M01 A3019 RMK A01 T01181012  RH  040%=      5-min Rain = 0
KCO1 171814Z 05010KT 12/M01 A3019 RMK A01 T01231008  RH  040%=      5-min Rain = 0
KCO1 171815Z 05006KT 13/M01 A3019 RMK A01 T01251011  RH  039%=      5-min Rain = 0
KCO1 171816Z 06006KT 12/M01 A3019 RMK A01 T01221014  RH  039%=      5-min Rain = 0
KCO1 171817Z 06005KT 12/M01 A3019 RMK A01 T01211013  RH  039%=      5-min Rain = 0
KCO1 171818Z 05008KT 12/M01 A3019 RMK A01 T01211013  RH  040%=      5-min Rain = 0
KCO1 171819Z 03007KT 12/M01 A3019 RMK A01 T01211013  RH  040%=      5-min Rain = 0
KCO1 171820Z 03009KT 12/M01 A3019 RMK A01 T01211012  RH  040%=      5-min Rain = 0
KCO1 171821Z 03011KT 12/M01 A3019 RMK A01 T01241012  RH  039%=      5-min Rain = 0
KCO1 171822Z 01008KT 12/M01 A3019 RMK A01 T01211014  RH  039%=      5-min Rain = 0
KCO1 171823Z 01005KT 12/M01 A3019 RMK A01 T01191014  RH  040%=      5-min Rain = 0
KCO1 171824Z 34004KT 12/M02 A3019 RMK A01 T01161015  RH  040%=      5-min Rain = 0
KCO1 171825Z 02005KT 11/M01 A3019 RMK A01 T01141014  RH  041%=      5-min Rain = 0
KCO1 171826Z 03008KT 11/M01 A3019 RMK A01 T01141013  RH  041%=      5-min Rain = 0
KCO1 171827Z 06011KT 11/M01 A3019 RMK A01 T01141013  RH  041%=      5-min Rain = 0
KCO1 171828Z 04008KT 12/M01 A3019 RMK A01 T01161013  RH  041%=      5-min Rain = 0
KCO1 171829Z 05007KT 12/M01 A3019 RMK A01 T01171012  RH  041%=      5-min Rain = 0
KCO1 171830Z 05006KT 12/M01 A3019 RMK A01 T01191012  RH  040%=      5-min Rain = 0
KCO1 171831Z 04013KT 12/M01 A3019 RMK A01 T01191013  RH  040%=      5-min Rain = 0
KCO1 171832Z 06011KT 12/M01 A3019 RMK A01 T01191014  RH  040%=      5-min Rain = 0
KCO1 171833Z 04007KT 12/M01 A3019 RMK A01 T01171014  RH  040%=      5-min Rain = 0
KCO1 171834Z 07002KT 11/M02 A3019 RMK A01 T01141016  RH  040%=      5-min Rain = 0
KCO1 171835Z 06005KT 11/M02 A3019 RMK A01 T01131015  RH  041%=      5-min Rain = 0
KCO1 171836Z 03008KT 12/M01 A3019 RMK A01 T01181010  RH  041%=      5-min Rain = 0
KCO1 171837Z 04008KT 12/M01 A3019 RMK A01 T01211013  RH  039%=      5-min Rain = 0
KCO1 171838Z 03008KT 12/M01 A3019 RMK A01 T01201014  RH  039%=      5-min Rain = 0
KCO1 171839Z 04009KT 12/M02 A3019 RMK A01 T01191015  RH  039%=      5-min Rain = 0
KCO1 171840Z 03007KT 12/M02 A3018 RMK A01 T01181016  RH  039%=      5-min Rain = 0
KCO1 171841Z 02005KT 12/M02 A3018 RMK A01 T01151019  RH  039%=      5-min Rain = 0
KCO1 171842Z 01006KT 11/M02 A3018 RMK A01 T01131019  RH  040%=      5-min Rain = 0
KCO1 171843Z 00005KT 11/M02 A3018 RMK A01 T01131019  RH  040%=      5-min Rain = 0
KCO1 171844Z 36005KT 11/M02 A3018 RMK A01 T01141017  RH  040%=      5-min Rain = 0
KCO1 171845Z 01007G12KT 11/M02 A3018 RMK A01 T01141017  RH  040%=      5-min Rain = 0
KCO1 171846Z 04006KT 11/M02 A3018 RMK A01 T01141015  RH  041%=      5-min Rain = 0
KCO1 171847Z 09003KT 12/M01 A3018 RMK A01 T01171013  RH  040%=      5-min Rain = 0
KCO1 171848Z 07003KT 12/M02 A3018 RMK A01 T01171015  RH  040%=      5-min Rain = 0
KCO1 171849Z 06004KT 12/M01 A3018 RMK A01 T01181013  RH  040%=      5-min Rain = 0
KCO1 171850Z 04004KT 12/M01 A3018 RMK A01 T01201013  RH  040%=      5-min Rain = 0
KCO1 171851Z 03003KT 12/M02 A3018 RMK A01 T01191015  RH  039%=      5-min Rain = 0
KCO1 171852Z 03004KT 12/M02 A3018 RMK A01 T01181015  RH  040%=      5-min Rain = 0
KCO1 171853Z 03002KT 12/M01 A3018 RMK A01 T01171014  RH  040%=      5-min Rain = 0
KCO1 171854Z 05003KT 12/M01 A3018 RMK A01 T01181012  RH  040%=      5-min Rain = 0
KCO1 171855Z 06007KT 12/M01 A3018 RMK A01 T01201013  RH  040%=      5-min Rain = 0
KCO1 171856Z 05008KT 12/M01 A3018 RMK A01 T01221014  RH  039%=      5-min Rain = 0
KCO1 171857Z 07009KT 12/M01 A3018 RMK A01 T01231014  RH  039%=      5-min Rain = 0
KCO1 171858Z 07008KT 12/M01 A3018 RMK A01 T01231014  RH  038%=      5-min Rain = 0
KCO1 171859Z 06008KT 12/M02 A3018 RMK A01 T01211015  RH  039%=      5-min Rain = 0
KCO1 171900Z 06007KT 12/M01 A3018 RMK A01 T01211014  RH  039%=      5-min Rain = 0
KCO1 171901Z 07005KT 12/M01 A3017 RMK A01 T01221014  RH  039%=      5-min Rain = 0
KCO1 171902Z 08006KT 12/M01 A3017 RMK A01 T01221014  RH  039%=      5-min Rain = 0
KCO1 171903Z 06009KT 12/M01 A3017 RMK A01 T01241013  RH  039%=      5-min Rain = 0
KCO1 171904Z 09007KT 12/M01 A3017 RMK A01 T01241014  RH  038%=      5-min Rain = 0
KCO1 171905Z 06006KT 13/M01 A3017 RMK A01 T01251014  RH  038%=      5-min Rain = 0
KCO1 171906Z 03008KT 13/M01 A3017 RMK A01 T01251014  RH  038%=      5-min Rain = 0
KCO1 171907Z 01009KT 13/M02 A3018 RMK A01 T01251015  RH  038%=      5-min Rain = 0
KCO1 171908Z 02005KT 12/M02 A3018 RMK A01 T01231017  RH  038%=      5-min Rain = 0
KCO1 171909Z 03004KT 12/M02 A3018 RMK A01 T01231015  RH  038%=      5-min Rain = 0
KCO1 171910Z 04005KT 12/M02 A3018 RMK A01 T01241016  RH  038%=      5-min Rain = 0
KCO1 171911Z 04008KT 12/M02 A3017 RMK A01 T01211019  RH  038%=      5-min Rain = 0
KCO1 171912Z 03009KT 12/M02 A3017 RMK A01 T01201020  RH  038%=      5-min Rain = 0
KCO1 171913Z 03007KT 12/M02 A3017 RMK A01 T01211018  RH  038%=      5-min Rain = 0
KCO1 171914Z 02006KT 12/M02 A3017 RMK A01 T01231018  RH  038%=      5-min Rain = 0
KCO1 171915Z 03006KT 12/M02 A3017 RMK A01 T01211020  RH  037%=      5-min Rain = 0
KCO1 171916Z 05006KT 12/M02 A3017 RMK A01 T01201021  RH  037%=      5-min Rain = 0
KCO1 171917Z 04005KT 12/M02 A3017 RMK A01 T01211020  RH  037%=      5-min Rain = 0
KCO1 171918Z 06004KT 12/M02 A3017 RMK A01 T01221019  RH  037%=      5-min Rain = 0
KCO1 171919Z 04005KT 12/M02 A3017 RMK A01 T01221020  RH  037%=      5-min Rain = 0
KCO1 171920Z 05009KT 12/M02 A3017 RMK A01 T01211020  RH  037%=      5-min Rain = 0
KCO1 171921Z 03009KT 12/M02 A3017 RMK A01 T01221019  RH  037%=      5-min Rain = 0
KCO1 171922Z 05008KT 12/M02 A3017 RMK A01 T01221020  RH  037%=      5-min Rain = 0
KCO1 171923Z 04007KT 12/M02 A3017 RMK A01 T01221019  RH  037%=      5-min Rain = 0
KCO1 171924Z 06008KT 12/M02 A3017 RMK A01 T01241018  RH  037%=      5-min Rain = 0
KCO1 171925Z 05005KT 13/M02 A3017 RMK A01 T01271020  RH  036%=      5-min Rain = 0
KCO1 171926Z 08006KT 13/M02 A3017 RMK A01 T01271021  RH  036%=      5-min Rain = 0
KCO1 171927Z 07007KT 13/M02 A3017 RMK A01 T01281019  RH  036%=      5-min Rain = 0
KCO1 171928Z 06007KT 13/M02 A3017 RMK A01 T01291020  RH  036%=      5-min Rain = 0
KCO1 171929Z 05007G12KT 13/M02 A3017 RMK A01 T01281021  RH  035%=      5-min Rain = 0
KCO1 171930Z 08006KT 13/M02 A3017 RMK A01 T01261021  RH  036%=      5-min Rain = 0
KCO1 171931Z 06006KT 13/M02 A3017 RMK A01 T01251020  RH  036%=      5-min Rain = 0
KCO1 171932Z 04008KT 13/M02 A3017 RMK A01 T01261019  RH  037%=      5-min Rain = 0
KCO1 171933Z 05005KT 13/M02 A3017 RMK A01 T01261019  RH  036%=      5-min Rain = 0
KCO1 171934Z 05006KT 13/M02 A3017 RMK A01 T01251020  RH  036%=      5-min Rain = 0
KCO1 171935Z 03007KT 12/M02 A3017 RMK A01 T01241021  RH  037%=      5-min Rain = 0
KCO1 171936Z 01005KT 12/M02 A3017 RMK A01 T01221021  RH  037%=      5-min Rain = 0
KCO1 171937Z 00004KT 12/M02 A3017 RMK A01 T01201021  RH  037%=      5-min Rain = 0
KCO1 171938Z 02005KT 12/M02 A3017 RMK A01 T01201020  RH  038%=      5-min Rain = 0
KCO1 171939Z 07006KT 12/M02 A3017 RMK A01 T01211019  RH  038%=      5-min Rain = 0
KCO1 171940Z 05011KT 13/M02 A3017 RMK A01 T01251017  RH  037%=      5-min Rain = 0
KCO1 171941Z 04008KT 13/M02 A3017 RMK A01 T01261018  RH  037%=      5-min Rain = 0
KCO1 171942Z 04005KT 12/M02 A3016 RMK A01 T01241020  RH  037%=      5-min Rain = 0
KCO1 171943Z 03005KT 12/M02 A3016 RMK A01 T01241019  RH  037%=      5-min Rain = 0
KCO1 171944Z 06008KT 13/M02 A3016 RMK A01 T01261017  RH  037%=      5-min Rain = 0
KCO1 171945Z 04006KT 13/M02 A3016 RMK A01 T01281017  RH  037%=      5-min Rain = 0
KCO1 171946Z 05004KT 13/M02 A3016 RMK A01 T01261019  RH  036%=      5-min Rain = 0
KCO1 171947Z 06005KT 12/M02 A3016 RMK A01 T01241020  RH  037%=      5-min Rain = 0
KCO1 171948Z 06005KT 12/M02 A3016 RMK A01 T01241020  RH  037%=      5-min Rain = 0
KCO1 171949Z 08005KT 13/M02 A3016 RMK A01 T01251018  RH  037%=      5-min Rain = 0
KCO1 171950Z 09006KT 13/M02 A3016 RMK A01 T01261018  RH  037%=      5-min Rain = 0
KCO1 171951Z 07007KT 13/M02 A3016 RMK A01 T01271017  RH  037%=      5-min Rain = 0
KCO1 171952Z 05005KT 13/M02 A3016 RMK A01 T01301015  RH  037%=      5-min Rain = 0
KCO1 171953Z 04007KT 13/M01 A3016 RMK A01 T01331014  RH  036%=      5-min Rain = 0
KCO1 171954Z 04006KT 13/M02 A3016 RMK A01 T01331017  RH  035%=      5-min Rain = 0
KCO1 171955Z 04005KT 13/M02 A3016 RMK A01 T01291019  RH  036%=      5-min Rain = 0
KCO1 171956Z 05008KT 13/M02 A3016 RMK A01 T01281019  RH  036%=      5-min Rain = 0
KCO1 171957Z 08004KT 13/M02 A3016 RMK A01 T01281019  RH  036%=      5-min Rain = 0
KCO1 171958Z 07008KT 13/M02 A3016 RMK A01 T01261020  RH  036%=      5-min Rain = 0
KCO1 171959Z 05006KT 13/M02 A3015 RMK A01 T01261020  RH  036%=      5-min Rain = 0
KCO1 172000Z 06005KT 13/M02 A3015 RMK A01 T01251020  RH  037%=      5-min Rain = 0
KCO1 172001Z 06009KT 13/M02 A3015 RMK A01 T01261018  RH  037%=      5-min Rain = 0
KCO1 172002Z 05012KT 13/M02 A3015 RMK A01 T01281018  RH  036%=      5-min Rain = 0
KCO1 172003Z 04009KT 13/M02 A3015 RMK A01 T01291018  RH  036%=      5-min Rain = 0
KCO1 172004Z 03010KT 13/M02 A3015 RMK A01 T01281020  RH  036%=      5-min Rain = 0
KCO1 172005Z 05008KT 13/M02 A3015 RMK A01 T01261019  RH  036%=      5-min Rain = 0
KCO1 172006Z 06009KT 13/M02 A3015 RMK A01 T01281017  RH  037%=      5-min Rain = 0
KCO1 172007Z 06008KT 13/M02 A3015 RMK A01 T01291017  RH  036%=      5-min Rain = 0
KCO1 172008Z 05008KT 13/M02 A3015 RMK A01 T01291018  RH  036%=      5-min Rain = 0
KCO1 172009Z 03007KT 13/M02 A3015 RMK A01 T01281018  RH  036%=      5-min Rain = 0
KCO1 172010Z 03006KT 13/M02 A3015 RMK A01 T01271018  RH  036%=      5-min Rain = 0
KCO1 172011Z 05005KT 13/M02 A3015 RMK A01 T01251019  RH  037%=      5-min Rain = 0
KCO1 172012Z 05006KT 13/M02 A3015 RMK A01 T01281015  RH  037%=      5-min Rain = 0
KCO1 172013Z 05006KT 13/M01 A3015 RMK A01 T01321014  RH  036%=      5-min Rain = 0
KCO1 172014Z 03005KT 13/M02 A3015 RMK A01 T01331016  RH  036%=      5-min Rain = 0
KCO1 172015Z 04005KT 13/M02 A3015 RMK A01 T01331016  RH  036%=      5-min Rain = 0
KCO1 172016Z 04009KT 13/M02 A3015 RMK A01 T01331016  RH  036%=      5-min Rain = 0
KCO1 172017Z 05007KT 14/M02 A3015 RMK A01 T01351015  RH  036%=      5-min Rain = 0
KCO1 172018Z 06010KT 14/M02 A3015 RMK A01 T01351016  RH  035%=      5-min Rain = 0
KCO1 172019Z 06008KT 14/M02 A3015 RMK A01 T01351017  RH  035%=      5-min Rain = 0
KCO1 172020Z 06007KT 14/M02 A3015 RMK A01 T01351015  RH  035%=      5-min Rain = 0
KCO1 172021Z 05006KT 13/M02 A3015 RMK A01 T01341016  RH  035%=      5-min Rain = 0
KCO1 172022Z 03009KT 13/M01 A3015 RMK A01 T01331012  RH  037%=      5-min Rain = 0
KCO1 172023Z 04010KT 13/M01 A3015 RMK A01 T01321011  RH  037%=      5-min Rain = 0
KCO1 172024Z 03009KT 13/M01 A3015 RMK A01 T01291013  RH  038%=      5-min Rain = 0
KCO1 172025Z 03010KT 13/M01 A3015 RMK A01 T01281009  RH  039%=      5-min Rain = 0
KCO1 172026Z 04008KT 13/M01 A3015 RMK A01 T01271010  RH  039%=      5-min Rain = 0
KCO1 172027Z 02007KT 13/M01 A3015 RMK A01 T01261010  RH  039%=      5-min Rain = 0
KCO1 172028Z 02007KT 13/M01 A3015 RMK A01 T01261010  RH  039%=      5-min Rain = 0
KCO1 172029Z 04008KT 13/M01 A3015 RMK A01 T01261011  RH  039%=      5-min Rain = 0
KCO1 172030Z 04007KT 13/M01 A3015 RMK A01 T01281010  RH  039%=      5-min Rain = 0
KCO1 172031Z 04006KT 13/M01 A3015 RMK A01 T01281013  RH  038%=      5-min Rain = 0
KCO1 172032Z 02007KT 13/M02 A3015 RMK A01 T01271015  RH  037%=      5-min Rain = 0
KCO1 172033Z 01008KT 13/M01 A3015 RMK A01 T01271014  RH  038%=      5-min Rain = 0
KCO1 172034Z 01006KT 13/M02 A3015 RMK A01 T01271016  RH  037%=      5-min Rain = 0
KCO1 172035Z 00007KT 13/M02 A3015 RMK A01 T01261016  RH  037%=      5-min Rain = 0
KCO1 172036Z 01010KT 13/M01 A3014 RMK A01 T01271014  RH  038%=      5-min Rain = 0
KCO1 172037Z 02008KT 13/M02 A3014 RMK A01 T01271015  RH  037%=      5-min Rain = 0
KCO1 172038Z 03008KT 13/M01 A3014 RMK A01 T01291014  RH  037%=      5-min Rain = 0
KCO1 172039Z 03008KT 13/M02 A3014 RMK A01 T01291015  RH  037%=      5-min Rain = 0
KCO1 172040Z 03009KT 13/M01 A3014 RMK A01 T01291014  RH  037%=      5-min Rain = 0
KCO1 172041Z 04008KT 13/M01 A3014 RMK A01 T01301014  RH  037%=      5-min Rain = 0
KCO1 172042Z 03008KT 13/M01 A3014 RMK A01 T01311014  RH  037%=      5-min Rain = 0
KCO1 172043Z 03006KT 13/M02 A3014 RMK A01 T01301015  RH  037%=      5-min Rain = 0
KCO1 172044Z 04008KT 13/M01 A3014 RMK A01 T01301014  RH  037%=      5-min Rain = 0
KCO1 172045Z 03006KT 13/M02 A3014 RMK A01 T01301015  RH  037%=      5-min Rain = 0
KCO1 172046Z 04008KT 13/M01 A3014 RMK A01 T01301014  RH  037%=      5-min Rain = 0
KCO1 172047Z 03008KT 13/M01 A3014 RMK A01 T01311013  RH  037%=      5-min Rain = 0
KCO1 172048Z 02010G15KT 13/M01 A3014 RMK A01 T01311013  RH  037%=      5-min Rain = 0
KCO1 172049Z 01014KT 13/M01 A3014 RMK A01 T01321005  RH  039%=      5-min Rain = 0
KCO1 172050Z 01014KT 13/M00 A3014 RMK A01 T01291003  RH  040%=      5-min Rain = 0
KCO1 172051Z 02014KT 13/M00 A3014 RMK A01 T01291001  RH  041%=      5-min Rain = 0
KCO1 172052Z 02015KT 13/M00 A3014 RMK A01 T01281001  RH  041%=      5-min Rain = 0
KCO1 172053Z 02014KT 13/M00 A3014 RMK A01 T01271001  RH  041%=      5-min Rain = 0
KCO1 172054Z 02014KT 13/M00 A3014 RMK A01 T01261001  RH  042%=      5-min Rain = 0
KCO1 172055Z 02015KT 12/M00 A3014 RMK A01 T01241001  RH  042%=      5-min Rain = 0
KCO1 172056Z 03013KT 12/M00 A3014 RMK A01 T01231001  RH  043%=      5-min Rain = 0
KCO1 172057Z 02011KT 12/M00 A3014 RMK A01 T01221002  RH  043%=      5-min Rain = 0
KCO1 172058Z 02013KT 12/M00 A3014 RMK A01 T01211002  RH  043%=      5-min Rain = 0
KCO1 172059Z 02016KT 12/M00 A3014 RMK A01 T01201002  RH  043%=      5-min Rain = 0
KCO1 172100Z 01014KT 12/M00 A3014 RMK A01 T01191002  RH  043%=      5-min Rain = 0
KCO1 172101Z 02012KT 12/M00 A3014 RMK A01 T01181001  RH  044%=      5-min Rain = 0
KCO1 172102Z 03014KT 12/00 A3014 RMK A01 T011800-0  RH  044%=      5-min Rain = 0
KCO1 172103Z 03013KT 12/M00 A3014 RMK A01 T01181001  RH  044%=      5-min Rain = 0
KCO1 172104Z 03013KT 12/00 A3014 RMK A01 T011700-0  RH  044%=      5-min Rain = 0
KCO1 172105Z 02014KT 12/00 A3014 RMK A01 T01180000  RH  044%=      5-min Rain = 0
KCO1 172106Z 03011KT 12/00 A3014 RMK A01 T01180000  RH  044%=      5-min Rain = 0
KCO1 172107Z 02011KT 12/00 A3014 RMK A01 T01180001  RH  044%=      5-min Rain = 0
KCO1 172108Z 02011KT 12/00 A3014 RMK A01 T01180000  RH  044%=      5-min Rain = 0
KCO1 172109Z 02014KT 12/00 A3014 RMK A01 T011700-0  RH  044%=      5-min Rain = 0
KCO1 172110Z 03015KT 12/M00 A3014 RMK A01 T01161001  RH  045%=      5-min Rain = 0
KCO1 172111Z 03012KT 12/M00 A3014 RMK A01 T01151001  RH  045%=      5-min Rain = 0
KCO1 172112Z 02011KT 12/M00 A3014 RMK A01 T01151001  RH  045%=      5-min Rain = 0
KCO1 172113Z 02012G18KT 12/00 A3014 RMK A01 T011500-0  RH  045%=      5-min Rain = 0
KCO1 172114Z 02014KT 12/00 A3014 RMK A01 T011600-0  RH  045%=      5-min Rain = 0
KCO1 172115Z 02013KT 12/M00 A3014 RMK A01 T01151002  RH  045%=      5-min Rain = 0
KCO1 172116Z 02014KT 11/M00 A3014 RMK A01 T01141001  RH  045%=      5-min Rain = 0
KCO1 172117Z 02015KT 11/M00 A3014 RMK A01 T01121002  RH  045%=      5-min Rain = 0
KCO1 172118Z 02014KT 11/M00 A3014 RMK A01 T01121002  RH  046%=      5-min Rain = 0
KCO1 172119Z 02012KT 11/M00 A3014 RMK A01 T01121001  RH  046%=      5-min Rain = 0
KCO1 172120Z 03013KT 11/M00 A3014 RMK A01 T01121001  RH  046%=      5-min Rain = 0
KCO1 172121Z 03013KT 11/M00 A3014 RMK A01 T01121002  RH  045%=      5-min Rain = 0
KCO1 172122Z 02014KT 11/M00 A3014 RMK A01 T01121002  RH  045%=      5-min Rain = 0
KCO1 172123Z 03011KT 11/M00 A3014 RMK A01 T01111002  RH  045%=      5-min Rain = 0
KCO1 172124Z 02012KT 11/M00 A3014 RMK A01 T01111002  RH  046%=      5-min Rain = 0
KCO1 172125Z 03012KT 11/M00 A3014 RMK A01 T01121002  RH  045%=      5-min Rain = 0
KCO1 172126Z 03012KT 11/M00 A3014 RMK A01 T01121002  RH  045%=      5-min Rain = 0
KCO1 172127Z 03011KT 11/M00 A3013 RMK A01 T01121003  RH  045%=      5-min Rain = 0
KCO1 172128Z 03011KT 11/M00 A3013 RMK A01 T01121002  RH  045%=      5-min Rain = 0
KCO1 172129Z 03013KT 11/M00 A3013 RMK A01 T01121003  RH  045%=      5-min Rain = 0
KCO1 172130Z 03012KT 11/M00 A3013 RMK A01 T01111004  RH  045%=      5-min Rain = 0
KCO1 172131Z 03011KT 11/M00 A3013 RMK A01 T01111004  RH  045%=      5-min Rain = 0
KCO1 172132Z 03012KT 11/M00 A3013 RMK A01 T01111003  RH  045%=      5-min Rain = 0
KCO1 172133Z 03013KT 11/M00 A3013 RMK A01 T01121003  RH  045%=      5-min Rain = 0
KCO1 172134Z 03011KT 11/M00 A3013 RMK A01 T01111004  RH  045%=      5-min Rain = 0
KCO1 172135Z 03010KT 11/M00 A3013 RMK A01 T01111004  RH  045%=      5-min Rain = 0
KCO1 172136Z 03011KT 11/M00 A3013 RMK A01 T01121003  RH  045%=      5-min Rain = 0
KCO1 172137Z 03012KT 11/M00 A3013 RMK A01 T01121003  RH  045%=      5-min Rain = 0
KCO1 172138Z 03012KT 11/M00 A3013 RMK A01 T01121003  RH  045%=      5-min Rain = 0
KCO1 172139Z 03012KT 11/M00 A3013 RMK A01 T01111004  RH  045%=      5-min Rain = 0
KCO1 172140Z 03011KT 11/M00 A3013 RMK A01 T01111003  RH  045%=      5-min Rain = 0
KCO1 172141Z 02015KT 11/M00 A3013 RMK A01 T01101003  RH  045%=      5-min Rain = 0
KCO1 172142Z 02013KT 11/M00 A3013 RMK A01 T01081003  RH  046%=      5-min Rain = 0
KCO1 172143Z 02012KT 11/M00 A3013 RMK A01 T01071002  RH  047%=      5-min Rain = 0
KCO1 172144Z 02011KT 11/M00 A3013 RMK A01 T01081002  RH  047%=      5-min Rain = 0
KCO1 172145Z 03013KT 11/M00 A3013 RMK A01 T01081001  RH  047%=      5-min Rain = 0
KCO1 172146Z 03012KT 11/M00 A3013 RMK A01 T01071002  RH  047%=      5-min Rain = 0
KCO1 172147Z 03012KT 11/M00 A3013 RMK A01 T01071001  RH  047%=      5-min Rain = 0
KCO1 172148Z 03010KT 11/M00 A3013 RMK A01 T01061001  RH  048%=      5-min Rain = 0
KCO1 172149Z 03013KT 11/00 A3013 RMK A01 T010600-0  RH  048%=      5-min Rain = 0
KCO1 172150Z 03012KT 11/00 A3013 RMK A01 T010600-0  RH  048%=      5-min Rain = 0
KCO1 172151Z 02012KT 11/00 A3013 RMK A01 T010500-0  RH  048%=      5-min Rain = 0
KCO1 172152Z 03010KT 11/00 A3013 RMK A01 T01050000  RH  048%=      5-min Rain = 0
KCO1 172153Z 03012KT 11/00 A3013 RMK A01 T01060001  RH  048%=      5-min Rain = 0
KCO1 172154Z 03012KT 11/00 A3013 RMK A01 T01050004  RH  049%=      5-min Rain = 0
KCO1 172155Z 03013KT 10/01 A3013 RMK A01 T01040008  RH  051%=      5-min Rain = 0
KCO1 172156Z 03011KT 10/01 A3013 RMK A01 T01030009  RH  052%=      5-min Rain = 0
KCO1 172157Z 04011KT 10/01 A3014 RMK A01 T01020010  RH  053%=      5-min Rain = 0
KCO1 172158Z 04011KT 10/01 A3013 RMK A01 T01010011  RH  053%=      5-min Rain = 0
KCO1 172159Z 04012KT 10/01 A3013 RMK A01 T01010013  RH  054%=      5-min Rain = 0
KCO1 172200Z 05012KT 10/01 A3013 RMK A01 T01010012  RH  054%=      5-min Rain = 0
KCO1 172201Z 04011KT 10/01 A3013 RMK A01 T01010011  RH  053%=      5-min Rain = 0
KCO1 172202Z 04012KT 10/01 A3013 RMK A01 T01010010  RH  053%=      5-min Rain = 0
KCO1 172203Z 04010KT 10/01 A3013 RMK A01 T01010009  RH  053%=      5-min Rain = 0
KCO1 172204Z 03010KT 10/01 A3013 RMK A01 T01010008  RH  053%=      5-min Rain = 0
KCO1 172205Z 04011KT 10/01 A3013 RMK A01 T01020010  RH  053%=      5-min Rain = 0
KCO1 172206Z 05009KT 10/01 A3013 RMK A01 T01020010  RH  053%=      5-min Rain = 0
KCO1 172207Z 05010KT 10/01 A3013 RMK A01 T01030011  RH  053%=      5-min Rain = 0
KCO1 172208Z 05011KT 10/01 A3013 RMK A01 T01030009  RH  052%=      5-min Rain = 0
KCO1 172209Z 05011KT 10/01 A3013 RMK A01 T01030008  RH  052%=      5-min Rain = 0
KCO1 172210Z 04011KT 10/01 A3013 RMK A01 T01040008  RH  051%=      5-min Rain = 0
KCO1 172211Z 04011KT 10/01 A3013 RMK A01 T01040008  RH  052%=      5-min Rain = 0
KCO1 172212Z 05011KT 10/01 A3013 RMK A01 T01040013  RH  053%=      5-min Rain = 0
KCO1 172213Z 05012KT 10/02 A3013 RMK A01 T01040016  RH  054%=      5-min Rain = 0
KCO1 172214Z 05012KT 10/02 A3013 RMK A01 T01030016  RH  055%=      5-min Rain = 0
KCO1 172215Z 05010KT 10/02 A3013 RMK A01 T01030017  RH  055%=      5-min Rain = 0
KCO1 172216Z 04010KT 10/02 A3013 RMK A01 T01040018  RH  056%=      5-min Rain = 0
KCO1 172217Z 04012KT 10/02 A3013 RMK A01 T01040015  RH  054%=      5-min Rain = 0
KCO1 172218Z 04011KT 10/01 A3013 RMK A01 T01030013  RH  054%=      5-min Rain = 0
KCO1 172219Z 06012KT 10/02 A3013 RMK A01 T01030015  RH  054%=      5-min Rain = 0
KCO1 172220Z 05011KT 10/01 A3013 RMK A01 T01030014  RH  054%=      5-min Rain = 0
KCO1 172221Z 05008KT 10/02 A3013 RMK A01 T01040015  RH  054%=      5-min Rain = 0
KCO1 172222Z 04008KT 11/02 A3013 RMK A01 T01060019  RH  055%=      5-min Rain = 0
KCO1 172223Z 04009KT 11/02 A3013 RMK A01 T01070017  RH  054%=      5-min Rain = 0
KCO1 172224Z 05010KT 11/02 A3013 RMK A01 T01070019  RH  055%=      5-min Rain = 0
KCO1 172225Z 05013KT 11/02 A3013 RMK A01 T01070019  RH  055%=      5-min Rain = 0
KCO1 172226Z 05013KT 11/02 A3013 RMK A01 T01060017  RH  054%=      5-min Rain = 0
KCO1 172227Z 05013KT 11/02 A3013 RMK A01 T01060019  RH  055%=      5-min Rain = 0
KCO1 172228Z 06012KT 11/02 A3013 RMK A01 T01060022  RH  056%=      5-min Rain = 0
KCO1 172229Z 06012KT 11/03 A3013 RMK A01 T01060025  RH  057%=      5-min Rain = 0
KCO1 172230Z 05014KT 11/03 A3013 RMK A01 T01060027  RH  058%=      5-min Rain = 0
KCO1 172231Z 04011KT 11/03 A3013 RMK A01 T01060027  RH  058%=      5-min Rain = 0
KCO1 172232Z 05012KT 11/03 A3013 RMK A01 T01060029  RH  059%=      5-min Rain = 0
KCO1 172233Z 05015KT 11/03 A3013 RMK A01 T01060028  RH  059%=      5-min Rain = 0
KCO1 172234Z 05013KT 10/03 A3013 RMK A01 T01040026  RH  058%=      5-min Rain = 0
KCO1 172235Z 05014KT 10/02 A3013 RMK A01 T01040023  RH  057%=      5-min Rain = 0
KCO1 172236Z 06013KT 10/02 A3013 RMK A01 T01040020  RH  056%=      5-min Rain = 0
KCO1 172237Z 05012KT 10/02 A3013 RMK A01 T01040021  RH  056%=      5-min Rain = 0
KCO1 172238Z 04010KT 11/02 A3013 RMK A01 T01050022  RH  056%=      5-min Rain = 0
KCO1 172239Z 05011KT 11/02 A3013 RMK A01 T01060024  RH  057%=      5-min Rain = 0
KCO1 172240Z 05010KT 11/02 A3013 RMK A01 T01070022  RH  056%=      5-min Rain = 0
KCO1 172241Z 05011KT 11/02 A3013 RMK A01 T01080020  RH  055%=      5-min Rain = 0
KCO1 172242Z 05011KT 11/02 A3013 RMK A01 T01070023  RH  056%=      5-min Rain = 0
KCO1 172243Z 04010KT 11/02 A3013 RMK A01 T01080023  RH  056%=      5-min Rain = 0
KCO1 172244Z 05010KT 11/03 A3013 RMK A01 T01080026  RH  057%=      5-min Rain = 0
KCO1 172245Z 05010KT 11/02 A3013 RMK A01 T01090023  RH  055%=      5-min Rain = 0
KCO1 172246Z 05010KT 11/02 A3013 RMK A01 T01100023  RH  055%=      5-min Rain = 0
KCO1 172247Z 05010KT 11/02 A3013 RMK A01 T01100022  RH  054%=      5-min Rain = 0
KCO1 172248Z 04009KT 11/02 A3013 RMK A01 T01110021  RH  054%=      5-min Rain = 0
KCO1 172249Z 06010KT 11/02 A3013 RMK A01 T01130024  RH  055%=      5-min Rain = 0
KCO1 172250Z 06010KT 11/02 A3013 RMK A01 T01140022  RH  053%=      5-min Rain = 0
KCO1 172251Z 06011KT 11/02 A3013 RMK A01 T01140021  RH  053%=      5-min Rain = 0
KCO1 172252Z 07011KT 12/02 A3013 RMK A01 T01150022  RH  053%=      5-min Rain = 0
KCO1 172253Z 05010KT 12/02 A3013 RMK A01 T01170022  RH  052%=      5-min Rain = 0
KCO1 172254Z 06010KT 12/02 A3013 RMK A01 T01190021  RH  051%=      5-min Rain = 0
KCO1 172255Z 06011KT 12/02 A3013 RMK A01 T01200021  RH  051%=      5-min Rain = 0
KCO1 172256Z 06012KT 12/02 A3013 RMK A01 T01220022  RH  050%=      5-min Rain = 0
KCO1 172257Z 06011KT 12/02 A3013 RMK A01 T01210018  RH  050%=      5-min Rain = 0
KCO1 172258Z 06010KT 12/02 A3013 RMK A01 T01200020  RH  050%=      5-min Rain = 0
KCO1 172259Z 06011KT 12/02 A3013 RMK A01 T01220020  RH  050%=      5-min Rain = 0
KCO1 172300Z 06010KT 12/02 A3013 RMK A01 T01230020  RH  049%=      5-min Rain = 0
KCO1 172301Z 06010KT 12/02 A3013 RMK A01 T01230020  RH  049%=      5-min Rain = 0
KCO1 172302Z 06009KT 12/02 A3012 RMK A01 T01230020  RH  049%=      5-min Rain = 0
KCO1 172303Z 06010KT 12/02 A3012 RMK A01 T01230020  RH  049%=      5-min Rain = 0
KCO1 172304Z 06012KT 12/02 A3013 RMK A01 T01230020  RH  049%=      5-min Rain = 0
KCO1 172305Z 06012KT 12/02 A3013 RMK A01 T01220019  RH  049%=      5-min Rain = 0
KCO1 172306Z 05011KT 12/02 A3013 RMK A01 T01220020  RH  050%=      5-min Rain = 0
KCO1 172307Z 03011KT 12/02 A3013 RMK A01 T01240018  RH  048%=      5-min Rain = 0
KCO1 172308Z 03011KT 12/02 A3013 RMK A01 T01230015  RH  047%=      5-min Rain = 0
KCO1 172309Z 03012KT 12/01 A3013 RMK A01 T01220014  RH  048%=      5-min Rain = 0
KCO1 172310Z 04013KT 12/01 A3013 RMK A01 T01200013  RH  048%=      5-min Rain = 0
KCO1 172311Z 04010KT 12/01 A3013 RMK A01 T01190012  RH  048%=      5-min Rain = 0
KCO1 172312Z 05011KT 12/01 A3013 RMK A01 T01190014  RH  048%=      5-min Rain = 0
KCO1 172313Z 05011KT 12/01 A3013 RMK A01 T01200014  RH  048%=      5-min Rain = 0
KCO1 172314Z 06011KT 12/01 A3013 RMK A01 T01200014  RH  048%=      5-min Rain = 0
KCO1 172315Z 06010KT 12/01 A3013 RMK A01 T01180012  RH  048%=      5-min Rain = 0
KCO1 172316Z 05013KT 12/01 A3013 RMK A01 T01170014  RH  049%=      5-min Rain = 0
KCO1 172317Z 05009KT 12/01 A3013 RMK A01 T01170014  RH  049%=      5-min Rain = 0
KCO1 172318Z 06011KT 12/01 A3013 RMK A01 T01150013  RH  049%=      5-min Rain = 0
KCO1 172319Z 07012KT 12/02 A3013 RMK A01 T01160015  RH  050%=      5-min Rain = 0
KCO1 172320Z 06009KT 12/02 A3013 RMK A01 T01180015  RH  049%=      5-min Rain = 0
KCO1 172321Z 06007KT 12/02 A3013 RMK A01 T01190016  RH  049%=      5-min Rain = 0
KCO1 172322Z 06010KT 12/02 A3013 RMK A01 T01210017  RH  049%=      5-min Rain = 0
KCO1 172323Z 05012KT 12/02 A3013 RMK A01 T01200015  RH  049%=      5-min Rain = 0
KCO1 172324Z 04009KT 12/02 A3013 RMK A01 T01180016  RH  049%=      5-min Rain = 0
KCO1 172325Z 05010KT 12/02 A3012 RMK A01 T01180016  RH  050%=      5-min Rain = 0
KCO1 172326Z 04008KT 12/02 A3012 RMK A01 T01180016  RH  050%=      5-min Rain = 0
KCO1 172327Z 04011KT 12/02 A3013 RMK A01 T01170016  RH  050%=      5-min Rain = 0
KCO1 172328Z 04011KT 12/02 A3013 RMK A01 T01160015  RH  050%=      5-min Rain = 0
KCO1 172329Z 04009KT 11/02 A3013 RMK A01 T01140015  RH  051%=      5-min Rain = 0
KCO1 172330Z 06011KT 11/02 A3013 RMK A01 T01140017  RH  051%=      5-min Rain = 0
KCO1 172331Z 05010KT 11/02 A3013 RMK A01 T01140017  RH  051%=      5-min Rain = 0
KCO1 172332Z 05011KT 12/02 A3013 RMK A01 T01150017  RH  051%=      5-min Rain = 0
KCO1 172333Z 05011KT 12/02 A3013 RMK A01 T01150016  RH  051%=      5-min Rain = 0
KCO1 172334Z 05010KT 12/02 A3013 RMK A01 T01160016  RH  050%=      5-min Rain = 0
KCO1 172335Z 06011KT 12/02 A3012 RMK A01 T01160016  RH  050%=      5-min Rain = 0
KCO1 172336Z 06010KT 12/02 A3012 RMK A01 T01160018  RH  051%=      5-min Rain = 0
KCO1 172337Z 05010KT 12/02 A3012 RMK A01 T01180019  RH  051%=      5-min Rain = 0
KCO1 172338Z 05008KT 12/02 A3012 RMK A01 T01190019  RH  050%=      5-min Rain = 0
KCO1 172339Z 06010KT 12/02 A3012 RMK A01 T01210021  RH  051%=      5-min Rain = 0
KCO1 172340Z 04010KT 12/02 A3012 RMK A01 T01220021  RH  050%=      5-min Rain = 0
KCO1 172341Z 04010KT 12/02 A3012 RMK A01 T01200017  RH  049%=      5-min Rain = 0
KCO1 172342Z 03009KT 12/02 A3012 RMK A01 T01190017  RH  050%=      5-min Rain = 0
KCO1 172343Z 03011KT 12/02 A3012 RMK A01 T01170017  RH  050%=      5-min Rain = 0
KCO1 172344Z 04012KT 12/02 A3012 RMK A01 T01160017  RH  051%=      5-min Rain = 0
KCO1 172345Z 06010KT 12/02 A3012 RMK A01 T01160018  RH  051%=      5-min Rain = 0
KCO1 172346Z 05009KT 12/02 A3012 RMK A01 T01170018  RH  051%=      5-min Rain = 0
KCO1 172347Z 04009KT 12/02 A3012 RMK A01 T01170018  RH  050%=      5-min Rain = 0
KCO1 172348Z 04011KT 12/02 A3012 RMK A01 T01190019  RH  050%=      5-min Rain = 0
KCO1 172349Z 04010KT 12/02 A3012 RMK A01 T01170018  RH  050%=      5-min Rain = 0
KCO1 172350Z 04008KT 12/02 A3012 RMK A01 T01150017  RH  051%=      5-min Rain = 0
KCO1 172351Z 05010KT 11/02 A3012 RMK A01 T01140018  RH  051%=      5-min Rain = 0
KCO1 172352Z 05010KT 11/02 A3012 RMK A01 T01140017  RH  051%=      5-min Rain = 0
KCO1 172353Z 05007KT 11/02 A3012 RMK A01 T01140017  RH  051%=      5-min Rain = 0
KCO1 172354Z 05007KT 12/02 A3012 RMK A01 T01160019  RH  051%=      5-min Rain = 0
KCO1 172355Z 05009KT 12/02 A3012 RMK A01 T01180020  RH  051%=      5-min Rain = 0
KCO1 172356Z 04010KT 12/02 A3013 RMK A01 T01190018  RH  050%=      5-min Rain = 0
KCO1 172357Z 05011KT 12/02 A3013 RMK A01 T01160017  RH  051%=      5-min Rain = 0
KCO1 172358Z 05012KT 12/02 A3013 RMK A01 T01160018  RH  051%=      5-min Rain = 0
KCO1 172359Z 05009KT 12/02 A3013 RMK A01 T01150018  RH  051%=      5-min Rain = 0
KCO1 180000Z 05009KT 11/02 A3013 RMK A01 T01130018  RH  052%=      5-min Rain = 0
KCO1 180001Z 06009KT 11/02 A3012 RMK A01 T01130019  RH  052%=      5-min Rain = 0
KCO1 180002Z 04009KT 11/02 A3012 RMK A01 T01140019  RH  052%=      5-min Rain = 0
KCO1 180003Z 05010KT 11/02 A3013 RMK A01 T01130017  RH  052%=      5-min Rain = 0
KCO1 180004Z 05009G14KT 11/02 A3012 RMK A01 T01110016  RH  052%=      5-min Rain = 0
KCO1 180005Z 05011KT 11/02 A3012 RMK A01 T01100016  RH  052%=      5-min Rain = 0
KCO1 180006Z 05011KT 11/02 A3012 RMK A01 T01100017  RH  053%=      5-min Rain = 0
KCO1 180007Z 06011KT 11/02 A3012 RMK A01 T01100017  RH  053%=      5-min Rain = 0
KCO1 180008Z 06009KT 11/02 A3012 RMK A01 T01090017  RH  053%=      5-min Rain = 0
KCO1 180009Z 05011KT 11/02 A3012 RMK A01 T01090018  RH  053%=      5-min Rain = 0
KCO1 180010Z 05012KT 11/02 A3012 RMK A01 T01090017  RH  053%=      5-min Rain = 0
KCO1 180011Z 05012KT 11/02 A3012 RMK A01 T01080017  RH  053%=      5-min Rain = 0
KCO1 180012Z 05011KT 11/02 A3012 RMK A01 T01070017  RH  054%=      5-min Rain = 0
KCO1 180013Z 05008KT 11/02 A3012 RMK A01 T01060017  RH  054%=      5-min Rain = 0
KCO1 180014Z 04010KT 11/02 A3012 RMK A01 T01060017  RH  054%=      5-min Rain = 0
KCO1 180015Z 04010KT 11/02 A3012 RMK A01 T01060017  RH  054%=      5-min Rain = 0
KCO1 180016Z 04007KT 11/02 A3012 RMK A01 T01060017  RH  054%=      5-min Rain = 0
KCO1 180017Z 04009KT 11/02 A3012 RMK A01 T01070018  RH  054%=      5-min Rain = 0
KCO1 180018Z 04009KT 11/02 A3012 RMK A01 T01080018  RH  054%=      5-min Rain = 0
KCO1 180019Z 04010KT 11/02 A3012 RMK A01 T01090017  RH  053%=      5-min Rain = 0
KCO1 180020Z 04009KT 11/02 A3012 RMK A01 T01090016  RH  053%=      5-min Rain = 0
KCO1 180021Z 04008KT 11/02 A3012 RMK A01 T01070015  RH  053%=      5-min Rain = 0
KCO1 180022Z 05007KT 11/02 A3012 RMK A01 T01060015  RH  053%=      5-min Rain = 0
KCO1 180023Z 06009KT 11/02 A3012 RMK A01 T01060016  RH  054%=      5-min Rain = 0
KCO1 180024Z 07009KT 11/02 A3012 RMK A01 T01050018  RH  055%=      5-min Rain = 0
KCO1 180025Z 06010KT 11/02 A3012 RMK A01 T01050018  RH  055%=      5-min Rain = 0
KCO1 180026Z 05008KT 10/02 A3012 RMK A01 T01040018  RH  055%=      5-min Rain = 0
KCO1 180027Z 04009KT 10/02 A3012 RMK A01 T01040017  RH  055%=      5-min Rain = 0
KCO1 180028Z 04008KT 10/02 A3012 RMK A01 T01040016  RH  054%=      5-min Rain = 0
KCO1 180029Z 05007KT 10/02 A3012 RMK A01 T01040016  RH  054%=      5-min Rain = 0
KCO1 180030Z 06008KT 10/02 A3013 RMK A01 T01040016  RH  055%=      5-min Rain = 0
KCO1 180031Z 06007KT 10/02 A3012 RMK A01 T01030016  RH  055%=      5-min Rain = 0
KCO1 180032Z 06005KT 10/02 A3012 RMK A01 T01030017  RH  055%=      5-min Rain = 0
KCO1 180033Z 05007KT 10/02 A3012 RMK A01 T01040017  RH  055%=      5-min Rain = 0
KCO1 180034Z 05008KT 11/02 A3012 RMK A01 T01050017  RH  054%=      5-min Rain = 0
KCO1 180035Z 05008KT 11/02 A3012 RMK A01 T01060018  RH  054%=      5-min Rain = 0
KCO1 180036Z 05010KT 11/02 A3012 RMK A01 T01070018  RH  054%=      5-min Rain = 0
KCO1 180037Z 05009KT 11/02 A3012 RMK A01 T01070018  RH  054%=      5-min Rain = 0
KCO1 180038Z 05009KT 11/02 A3012 RMK A01 T01070018  RH  054%=      5-min Rain = 0
KCO1 180039Z 05009KT 11/02 A3012 RMK A01 T01070018  RH  054%=      5-min Rain = 0
KCO1 180040Z 05008KT 11/02 A3012 RMK A01 T01060018  RH  054%=      5-min Rain = 0
KCO1 180041Z 05008KT 11/02 A3013 RMK A01 T01060018  RH  055%=      5-min Rain = 0
KCO1 180042Z 05010KT 11/02 A3013 RMK A01 T01050017  RH  054%=      5-min Rain = 0
KCO1 180043Z 06009KT 11/02 A3013 RMK A01 T01050016  RH  054%=      5-min Rain = 0
KCO1 180044Z 05008KT 10/02 A3013 RMK A01 T01040017  RH  055%=      5-min Rain = 0
KCO1 180045Z 05007KT 10/02 A3013 RMK A01 T01040017  RH  055%=      5-min Rain = 0
KCO1 180046Z 05008KT 10/02 A3013 RMK A01 T01040017  RH  055%=      5-min Rain = 0
KCO1 180047Z 04008KT 10/02 A3013 RMK A01 T01040017  RH  055%=      5-min Rain = 0
KCO1 180048Z 05008KT 10/02 A3013 RMK A01 T01040015  RH  054%=      5-min Rain = 0
KCO1 180049Z 06009KT 10/02 A3013 RMK A01 T01030015  RH  054%=      5-min Rain = 0
KCO1 180050Z 06008KT 10/01 A3013 RMK A01 T01020014  RH  054%=      5-min Rain = 0
KCO1 180051Z 05008KT 10/01 A3013 RMK A01 T01020014  RH  055%=      5-min Rain = 0
KCO1 180052Z 06008KT 10/02 A3013 RMK A01 T01020015  RH  055%=      5-min Rain = 0
KCO1 180053Z 06009KT 10/02 A3013 RMK A01 T01020016  RH  055%=      5-min Rain = 0
KCO1 180054Z 06008KT 10/02 A3013 RMK A01 T01020015  RH  055%=      5-min Rain = 0
KCO1 180055Z 05007KT 10/02 A3013 RMK A01 T01020015  RH  055%=      5-min Rain = 0
KCO1 180056Z 05007KT 10/02 A3013 RMK A01 T01020015  RH  055%=      5-min Rain = 0
KCO1 180057Z 05007KT 10/02 A3013 RMK A01 T01020016  RH  055%=      5-min Rain = 0
KCO1 180058Z 05008KT 10/02 A3013 RMK A01 T01020017  RH  055%=      5-min Rain = 0
KCO1 180059Z 05008KT 10/02 A3013 RMK A01 T01020017  RH  056%=      5-min Rain = 0
KCO1 180100Z 05006KT 10/02 A3013 RMK A01 T01020017  RH  056%=      5-min Rain = 0
KCO1 180101Z 06005KT 10/02 A3013 RMK A01 T01010017  RH  056%=      5-min Rain = 0
KCO1 180102Z 06005KT 10/02 A3013 RMK A01 T01010017  RH  056%=      5-min Rain = 0
KCO1 180103Z 06006KT 10/02 A3013 RMK A01 T01010017  RH  056%=      5-min Rain = 0
KCO1 180104Z 06007KT 10/02 A3014 RMK A01 T01010017  RH  056%=      5-min Rain = 0
KCO1 180105Z 07006KT 10/02 A3014 RMK A01 T01010018  RH  057%=      5-min Rain = 0
KCO1 180106Z 07006KT 10/02 A3014 RMK A01 T01000019  RH  057%=      5-min Rain = 0
KCO1 180107Z 07007KT 10/02 A3014 RMK A01 T01000019  RH  057%=      5-min Rain = 0
KCO1 180108Z 07006KT 10/02 A3014 RMK A01 T00990019  RH  057%=      5-min Rain = 0
KCO1 180109Z 06007KT 10/02 A3014 RMK A01 T00990020  RH  058%=      5-min Rain = 0
KCO1 180110Z 07005KT 10/02 A3014 RMK A01 T00990019  RH  058%=      5-min Rain = 0
KCO1 180111Z 07006KT 10/02 A3014 RMK A01 T00990019  RH  058%=      5-min Rain = 0
KCO1 180112Z 07006KT 10/02 A3013 RMK A01 T00980019  RH  058%=      5-min Rain = 0
KCO1 180113Z 07006KT 10/02 A3013 RMK A01 T00980019  RH  058%=      5-min Rain = 0
KCO1 180114Z 07006KT 10/02 A3013 RMK A01 T00980019  RH  058%=      5-min Rain = 0
KCO1 180115Z 07006KT 10/02 A3013 RMK A01 T00970019  RH  058%=      5-min Rain = 0
KCO1 180116Z 06006KT 10/02 A3013 RMK A01 T00970020  RH  059%=      5-min Rain = 0
KCO1 180117Z 07005KT 10/02 A3013 RMK A01 T00960020  RH  059%=      5-min Rain = 0
KCO1 180118Z 07004KT 10/02 A3013 RMK A01 T00960019  RH  059%=      5-min Rain = 0
KCO1 180119Z 07005KT 10/02 A3013 RMK A01 T00960020  RH  059%=      5-min Rain = 0
KCO1 180120Z 07007KT 10/02 A3013 RMK A01 T00950019  RH  059%=      5-min Rain = 0
KCO1 180121Z 07006KT 10/02 A3013 RMK A01 T00950019  RH  059%=      5-min Rain = 0
KCO1 180122Z 07007KT 10/02 A3014 RMK A01 T00950019  RH  059%=      5-min Rain = 0
KCO1 180123Z 07007KT 10/02 A3014 RMK A01 T00950018  RH  059%=      5-min Rain = 0
KCO1 180124Z 07007KT 10/02 A3014 RMK A01 T00950018  RH  059%=      5-min Rain = 0
KCO1 180125Z 07006KT 10/02 A3014 RMK A01 T00950018  RH  059%=      5-min Rain = 0
KCO1 180126Z 07005KT 09/02 A3014 RMK A01 T00940018  RH  059%=      5-min Rain = 0
KCO1 180127Z 07004KT 09/02 A3014 RMK A01 T00940017  RH  059%=      5-min Rain = 0
KCO1 180128Z 07006KT 09/02 A3014 RMK A01 T00930017  RH  059%=      5-min Rain = 0
KCO1 180129Z 07006KT 09/02 A3014 RMK A01 T00920017  RH  059%=      5-min Rain = 0
KCO1 180130Z 07006KT 09/02 A3014 RMK A01 T00920017  RH  060%=      5-min Rain = 0
KCO1 180131Z 07005KT 09/02 A3014 RMK A01 T00920017  RH  060%=      5-min Rain = 0
KCO1 180132Z 07005KT 09/02 A3014 RMK A01 T00910017  RH  060%=      5-min Rain = 0
KCO1 180133Z 07004KT 09/02 A3014 RMK A01 T00910017  RH  060%=      5-min Rain = 0
KCO1 180134Z 07005KT 09/02 A3014 RMK A01 T00900017  RH  060%=      5-min Rain = 0
KCO1 180135Z 07005KT 09/02 A3014 RMK A01 T00900018  RH  060%=      5-min Rain = 0
KCO1 180136Z 08005KT 09/02 A3014 RMK A01 T00900018  RH  061%=      5-min Rain = 0
KCO1 180137Z 07005KT 09/02 A3014 RMK A01 T00900018  RH  061%=      5-min Rain = 0
KCO1 180138Z 07005KT 09/02 A3014 RMK A01 T00890017  RH  061%=      5-min Rain = 0
KCO1 180139Z 07005KT 09/02 A3014 RMK A01 T00880017  RH  061%=      5-min Rain = 0
KCO1 180140Z 08005KT 09/02 A3014 RMK A01 T00880017  RH  061%=      5-min Rain = 0
KCO1 180141Z 08005KT 09/02 A3014 RMK A01 T00880018  RH  061%=      5-min Rain = 0
KCO1 180142Z 07004KT 09/02 A3014 RMK A01 T00870017  RH  061%=      5-min Rain = 0
KCO1 180143Z 07005KT 09/02 A3014 RMK A01 T00870017  RH  062%=      5-min Rain = 0
KCO1 180144Z 07005KT 09/02 A3014 RMK A01 T00870017  RH  062%=      5-min Rain = 0
KCO1 180145Z 07005KT 09/02 A3015 RMK A01 T00870017  RH  062%=      5-min Rain = 0
KCO1 180146Z 07004KT 09/02 A3015 RMK A01 T00870018  RH  062%=      5-min Rain = 0
KCO1 180147Z 08004KT 09/02 A3015 RMK A01 T00860017  RH  062%=      5-min Rain = 0
KCO1 180148Z 08005KT 09/02 A3015 RMK A01 T00860017  RH  062%=      5-min Rain = 0
KCO1 180149Z 08005KT 09/02 A3015 RMK A01 T00850017  RH  062%=      5-min Rain = 0
KCO1 180150Z 08005KT 09/02 A3015 RMK A01 T00850018  RH  063%=      5-min Rain = 0
KCO1 180151Z 08004KT 09/02 A3015 RMK A01 T00850019  RH  063%=      5-min Rain = 0
KCO1 180152Z 08005KT 09/02 A3015 RMK A01 T00850019  RH  063%=      5-min Rain = 0
KCO1 180153Z 08004KT 09/02 A3015 RMK A01 T00850020  RH  064%=      5-min Rain = 0
KCO1 180154Z 08004KT 08/02 A3015 RMK A01 T00840020  RH  064%=      5-min Rain = 0
KCO1 180155Z 08005KT 08/02 A3015 RMK A01 T00840020  RH  064%=      5-min Rain = 0
KCO1 180156Z 09004KT 08/02 A3015 RMK A01 T00840021  RH  065%=      5-min Rain = 0
KCO1 180157Z 09004KT 08/02 A3015 RMK A01 T00830021  RH  065%=      5-min Rain = 0
KCO1 180158Z 09004KT 08/02 A3015 RMK A01 T00830021  RH  065%=      5-min Rain = 0
KCO1 180159Z 09004KT 08/02 A3015 RMK A01 T00830021  RH  065%=      5-min Rain = 0
KCO1 180200Z 09004KT 08/02 A3015 RMK A01 T00820021  RH  065%=      5-min Rain = 0
KCO1 180201Z 09004KT 08/02 A3015 RMK A01 T00820021  RH  066%=      5-min Rain = 0
KCO1 180202Z 09004KT 08/02 A3015 RMK A01 T00820021  RH  066%=      5-min Rain = 0
KCO1 180203Z 09003KT 08/02 A3015 RMK A01 T00820021  RH  066%=      5-min Rain = 0
KCO1 180204Z 09003KT 08/02 A3015 RMK A01 T00810020  RH  065%=      5-min Rain = 0
KCO1 180205Z 09004KT 08/02 A3015 RMK A01 T00810020  RH  065%=      5-min Rain = 0
KCO1 180206Z 09004KT 08/02 A3015 RMK A01 T00810020  RH  066%=      5-min Rain = 0
KCO1 180207Z 09004KT 08/02 A3015 RMK A01 T00800020  RH  066%=      5-min Rain = 0
KCO1 180208Z 09004KT 08/02 A3016 RMK A01 T00800019  RH  066%=      5-min Rain = 0
KCO1 180209Z 09004KT 08/02 A3016 RMK A01 T00790019  RH  066%=      5-min Rain = 0
KCO1 180210Z 09004KT 08/02 A3016 RMK A01 T00790019  RH  066%=      5-min Rain = 0
KCO1 180211Z 09004KT 08/02 A3016 RMK A01 T00780019  RH  066%=      5-min Rain = 0
KCO1 180212Z 08004KT 08/02 A3016 RMK A01 T00780019  RH  066%=      5-min Rain = 0
KCO1 180213Z 09004KT 08/02 A3016 RMK A01 T00780019  RH  066%=      5-min Rain = 0
KCO1 180214Z 09004KT 08/02 A3016 RMK A01 T00770019  RH  067%=      5-min Rain = 0
KCO1 180215Z 09005KT 08/02 A3016 RMK A01 T00770020  RH  067%=      5-min Rain = 0
KCO1 180216Z 09005KT 08/02 A3016 RMK A01 T00770020  RH  067%=      5-min Rain = 0
KCO1 180217Z 09005KT 08/02 A3016 RMK A01 T00770020  RH  067%=      5-min Rain = 0
KCO1 180218Z 09004KT 08/02 A3016 RMK A01 T00770020  RH  067%=      5-min Rain = 0
KCO1 180219Z 09004KT 08/02 A3016 RMK A01 T00770020  RH  067%=      5-min Rain = 0
KCO1 180220Z 09004KT 08/02 A3016 RMK A01 T00760020  RH  067%=      5-min Rain = 0
KCO1 180221Z 09005KT 08/02 A3016 RMK A01 T00760020  RH  067%=      5-min Rain = 0
KCO1 180222Z 09004KT 08/02 A3016 RMK A01 T00760020  RH  067%=      5-min Rain = 0
KCO1 180223Z 09005KT 08/02 A3016 RMK A01 T00760020  RH  068%=      5-min Rain = 0
KCO1 180224Z 09005KT 08/02 A3016 RMK A01 T00760020  RH  068%=      5-min Rain = 0
KCO1 180225Z 09005KT 08/02 A3016 RMK A01 T00760021  RH  068%=      5-min Rain = 0
KCO1 180226Z 09005KT 08/02 A3016 RMK A01 T00760020  RH  068%=      5-min Rain = 0
KCO1 180227Z 09005KT 08/02 A3016 RMK A01 T00750020  RH  068%=      5-min Rain = 0
KCO1 180228Z 09005KT 08/02 A3016 RMK A01 T00750021  RH  068%=      5-min Rain = 0
KCO1 180229Z 10005KT 08/02 A3016 RMK A01 T00750020  RH  068%=      5-min Rain = 0
KCO1 180230Z 10005KT 08/02 A3017 RMK A01 T00750021  RH  068%=      5-min Rain = 0
KCO1 180231Z 10005KT 08/02 A3017 RMK A01 T00750021  RH  069%=      5-min Rain = 0
KCO1 180232Z 09005KT 07/02 A3017 RMK A01 T00740020  RH  069%=      5-min Rain = 0
KCO1 180233Z 09005KT 07/02 A3017 RMK A01 T00740020  RH  069%=      5-min Rain = 0
KCO1 180234Z 09005KT 07/02 A3017 RMK A01 T00740021  RH  069%=      5-min Rain = 0
KCO1 180235Z 09005KT 07/02 A3017 RMK A01 T00740020  RH  069%=      5-min Rain = 0
KCO1 180236Z 09005KT 07/02 A3017 RMK A01 T00730020  RH  069%=      5-min Rain = 0
KCO1 180237Z 09005KT 07/02 A3017 RMK A01 T00730021  RH  069%=      5-min Rain = 0
KCO1 180238Z 09005KT 07/02 A3017 RMK A01 T00730021  RH  069%=      5-min Rain = 0
KCO1 180239Z 09005KT 07/02 A3017 RMK A01 T00730021  RH  069%=      5-min Rain = 0
KCO1 180240Z 09005KT 07/02 A3017 RMK A01 T00730021  RH  070%=      5-min Rain = 0
KCO1 180241Z 09005KT 07/02 A3017 RMK A01 T00720021  RH  070%=      5-min Rain = 0
KCO1 180242Z 09005KT 07/02 A3017 RMK A01 T00720021  RH  070%=      5-min Rain = 0
KCO1 180243Z 09005KT 07/02 A3017 RMK A01 T00720021  RH  070%=      5-min Rain = 0
KCO1 180244Z 09005KT 07/02 A3017 RMK A01 T00720021  RH  070%=      5-min Rain = 0
KCO1 180245Z 09005KT 07/02 A3017 RMK A01 T00710020  RH  070%=      5-min Rain = 0
KCO1 180246Z 09005KT 07/02 A3017 RMK A01 T00710021  RH  070%=      5-min Rain = 0
KCO1 180247Z 09005KT 07/02 A3017 RMK A01 T00710021  RH  070%=      5-min Rain = 0
KCO1 180248Z 10005KT 07/02 A3017 RMK A01 T00710021  RH  071%=      5-min Rain = 0
KCO1 180249Z 10005KT 07/02 A3017 RMK A01 T00710021  RH  071%=      5-min Rain = 0
KCO1 180250Z 10005KT 07/02 A3017 RMK A01 T00710021  RH  071%=      5-min Rain = 0
KCO1 180251Z 10005KT 07/02 A3017 RMK A01 T00700021  RH  071%=      5-min Rain = 0
KCO1 180252Z 10006KT 07/02 A3018 RMK A01 T00700021  RH  071%=      5-min Rain = 0
KCO1 180253Z 10006KT 07/02 A3018 RMK A01 T00700021  RH  071%=      5-min Rain = 0
KCO1 180254Z 10006KT 07/02 A3018 RMK A01 T00700021  RH  071%=      5-min Rain = 0
KCO1 180255Z 10006KT 07/02 A3018 RMK A01 T00690021  RH  071%=      5-min Rain = 0
KCO1 180256Z 10005KT 07/02 A3018 RMK A01 T00690021  RH  071%=      5-min Rain = 0
KCO1 180257Z 11005KT 07/02 A3018 RMK A01 T00690021  RH  071%=      5-min Rain = 0
KCO1 180258Z 11005KT 07/02 A3017 RMK A01 T00680020  RH  071%=      5-min Rain = 0
KCO1 180259Z 11005KT 07/02 A3017 RMK A01 T00680019  RH  071%=      5-min Rain = 0
KCO1 180300Z 11005KT 07/02 A3017 RMK A01 T00670019  RH  072%=      5-min Rain = 0
KCO1 180301Z 11005KT 07/02 A3017 RMK A01 T00670020  RH  072%=      5-min Rain = 0
KCO1 180302Z 10005KT 07/02 A3017 RMK A01 T00670020  RH  072%=      5-min Rain = 0
KCO1 180303Z 10005KT 07/02 A3017 RMK A01 T00670020  RH  072%=      5-min Rain = 0
KCO1 180304Z 10005KT 07/02 A3018 RMK A01 T00670021  RH  073%=      5-min Rain = 0
KCO1 180305Z 10005KT 07/02 A3018 RMK A01 T00670021  RH  073%=      5-min Rain = 0
KCO1 180306Z 10005KT 07/02 A3018 RMK A01 T00660021  RH  073%=      5-min Rain = 0
KCO1 180307Z 11005KT 07/02 A3018 RMK A01 T00660021  RH  073%=      5-min Rain = 0
KCO1 180308Z 11005KT 07/02 A3018 RMK A01 T00660022  RH  073%=      5-min Rain = 0
KCO1 180309Z 11005KT 07/02 A3018 RMK A01 T00660022  RH  073%=      5-min Rain = 0
KCO1 180310Z 11005KT 07/02 A3018 RMK A01 T00660022  RH  073%=      5-min Rain = 0
KCO1 180311Z 11005KT 07/02 A3018 RMK A01 T00660023  RH  074%=      5-min Rain = 0
KCO1 180312Z 11004KT 07/02 A3018 RMK A01 T00660023  RH  074%=      5-min Rain = 0
KCO1 180313Z 12005KT 07/02 A3018 RMK A01 T00660023  RH  074%=      5-min Rain = 0
KCO1 180314Z 12005KT 07/02 A3018 RMK A01 T00660023  RH  074%=      5-min Rain = 0
KCO1 180315Z 11005KT 07/02 A3018 RMK A01 T00660023  RH  074%=      5-min Rain = 0
KCO1 180316Z 12005KT 07/02 A3018 RMK A01 T00660024  RH  074%=      5-min Rain = 0
KCO1 180317Z 11005KT 07/02 A3018 RMK A01 T00660024  RH  075%=      5-min Rain = 0
KCO1 180318Z 11005KT 07/03 A3018 RMK A01 T00660025  RH  075%=      5-min Rain = 0
KCO1 180319Z 11005KT 07/03 A3018 RMK A01 T00660025  RH  075%=      5-min Rain = 0
KCO1 180320Z 11005KT 07/03 A3018 RMK A01 T00670025  RH  075%=      5-min Rain = 0
KCO1 180321Z 10005KT 07/03 A3018 RMK A01 T00670026  RH  075%=      5-min Rain = 0
KCO1 180322Z 10005KT 07/03 A3018 RMK A01 T00670026  RH  075%=      5-min Rain = 0
KCO1 180323Z 10005KT 07/03 A3018 RMK A01 T00680027  RH  075%=      5-min Rain = 0
KCO1 180324Z 10005KT 07/03 A3018 RMK A01 T00680027  RH  075%=      5-min Rain = 0
KCO1 180325Z 10004KT 07/03 A3018 RMK A01 T00680026  RH  075%=      5-min Rain = 0
KCO1 180326Z 10005KT 07/03 A3018 RMK A01 T00680026  RH  075%=      5-min Rain = 0
KCO1 180327Z 10004KT 07/03 A3018 RMK A01 T00670026  RH  075%=      5-min Rain = 0
KCO1 180328Z 10004KT 07/03 A3018 RMK A01 T00670026  RH  075%=      5-min Rain = 0
KCO1 180329Z 10004KT 07/03 A3018 RMK A01 T00670026  RH  075%=      5-min Rain = 0
KCO1 180330Z 11004KT 07/03 A3018 RMK A01 T00670026  RH  075%=      5-min Rain = 0
KCO1 180331Z 11004KT 07/03 A3018 RMK A01 T00660025  RH  075%=      5-min Rain = 0
KCO1 180332Z 11004KT 07/03 A3019 RMK A01 T00660025  RH  075%=      5-min Rain = 0
KCO1 180333Z 11004KT 07/03 A3019 RMK A01 T00650025  RH  075%=      5-min Rain = 0
KCO1 180334Z 11004KT 07/03 A3019 RMK A01 T00650025  RH  075%=      5-min Rain = 0
KCO1 180335Z 11004KT 07/03 A3019 RMK A01 T00650025  RH  076%=      5-min Rain = 0
KCO1 180336Z 10004KT 07/03 A3019 RMK A01 T00650025  RH  076%=      5-min Rain = 0
KCO1 180337Z 10004KT 06/03 A3019 RMK A01 T00640025  RH  076%=      5-min Rain = 0
KCO1 180338Z 10004KT 06/03 A3019 RMK A01 T00640025  RH  076%=      5-min Rain = 0
KCO1 180339Z 11004KT 06/03 A3019 RMK A01 T00640025  RH  076%=      5-min Rain = 0
KCO1 180340Z 11004KT 06/03 A3019 RMK A01 T00640025  RH  076%=      5-min Rain = 0
KCO1 180341Z 10004KT 06/03 A3019 RMK A01 T00640025  RH  076%=      5-min Rain = 0
KCO1 180342Z 10004KT 06/03 A3019 RMK A01 T00640025  RH  076%=      5-min Rain = 0
KCO1 180343Z 10004KT 06/03 A3019 RMK A01 T00640025  RH  076%=      5-min Rain = 0
KCO1 180344Z 10004KT 06/03 A3019 RMK A01 T00640025  RH  076%=      5-min Rain = 0
KCO1 180345Z 10003KT 06/03 A3019 RMK A01 T00640025  RH  076%=      5-min Rain = 0
KCO1 180346Z 09004KT 06/02 A3019 RMK A01 T00630024  RH  076%=      5-min Rain = 0
KCO1 180347Z 10004KT 06/03 A3019 RMK A01 T00630025  RH  076%=      5-min Rain = 0
KCO1 180348Z 10004KT 06/02 A302 RMK A01 T00630024  RH  076%=      5-min Rain = 0
KCO1 180349Z 10003KT 06/02 A302 RMK A01 T00630024  RH  076%=      5-min Rain = 0
KCO1 180350Z 10004KT 06/02 A302 RMK A01 T00620024  RH  076%=      5-min Rain = 0
KCO1 180351Z 10003KT 06/02 A302 RMK A01 T00620024  RH  077%=      5-min Rain = 0
KCO1 180352Z 10004KT 06/02 A302 RMK A01 T00620024  RH  077%=      5-min Rain = 0
KCO1 180353Z 10004KT 06/02 A302 RMK A01 T00610023  RH  077%=      5-min Rain = 0
KCO1 180354Z 10004KT 06/02 A302 RMK A01 T00610024  RH  077%=      5-min Rain = 0
KCO1 180355Z 10003KT 06/02 A302 RMK A01 T00610023  RH  077%=      5-min Rain = 0
KCO1 180356Z 10003KT 06/02 A302 RMK A01 T00600023  RH  077%=      5-min Rain = 0
KCO1 180357Z 09003KT 06/02 A302 RMK A01 T00600023  RH  077%=      5-min Rain = 0
KCO1 180358Z 09003KT 06/02 A302 RMK A01 T00600022  RH  077%=      5-min Rain = 0
KCO1 180359Z 07002KT 06/02 A302 RMK A01 T00590022  RH  077%=      5-min Rain = 0
KCO1 180400Z 05002KT 06/02 A302 RMK A01 T00590022  RH  077%=      5-min Rain = 0
KCO1 180401Z 02002KT 06/02 A302 RMK A01 T00580021  RH  077%=      5-min Rain = 0
KCO1 180402Z 01003KT 06/02 A302 RMK A01 T00570019  RH  076%=      5-min Rain = 0
KCO1 180403Z 01003KT 06/02 A302 RMK A01 T00560017  RH  076%=      5-min Rain = 0
KCO1 180404Z 02003KT 05/02 A302 RMK A01 T00540015  RH  076%=      5-min Rain = 0
KCO1 180405Z 02002KT 05/01 A302 RMK A01 T00530014  RH  076%=      5-min Rain = 0
KCO1 180406Z 03002KT 05/01 A302 RMK A01 T00520014  RH  076%=      5-min Rain = 0
KCO1 180407Z 04002KT 05/01 A302 RMK A01 T00520014  RH  076%=      5-min Rain = 0
KCO1 180408Z 04002KT 05/01 A302 RMK A01 T00510013  RH  077%=      5-min Rain = 0
KCO1 180409Z 06003KT 05/01 A302 RMK A01 T00510014  RH  077%=      5-min Rain = 0
KCO1 180410Z 03003KT 05/02 A302 RMK A01 T00510016  RH  078%=      5-min Rain = 0
KCO1 180411Z 01004KT 05/02 A302 RMK A01 T00510016  RH  078%=      5-min Rain = 0
KCO1 180412Z 01004KT 05/01 A302 RMK A01 T00510014  RH  077%=      5-min Rain = 0
KCO1 180413Z 02003KT 05/01 A302 RMK A01 T00500013  RH  077%=      5-min Rain = 0
KCO1 180414Z 04003KT 05/01 A302 RMK A01 T00500012  RH  077%=      5-min Rain = 0
KCO1 180415Z 05003KT 05/01 A302 RMK A01 T00490012  RH  077%=      5-min Rain = 0
KCO1 180416Z 05003KT 05/01 A3021 RMK A01 T00490013  RH  078%=      5-min Rain = 0
KCO1 180417Z 06003KT 05/01 A3021 RMK A01 T00490014  RH  078%=      5-min Rain = 0
KCO1 180418Z 06003KT 05/01 A3021 RMK A01 T00490014  RH  078%=      5-min Rain = 0
KCO1 180419Z 06002KT 05/02 A3021 RMK A01 T00490015  RH  079%=      5-min Rain = 0
KCO1 180420Z 06003KT 05/02 A3021 RMK A01 T00490016  RH  079%=      5-min Rain = 0
KCO1 180421Z 05003KT 05/02 A3021 RMK A01 T00500017  RH  079%=      5-min Rain = 0
KCO1 180422Z 05003KT 05/02 A3021 RMK A01 T00500017  RH  079%=      5-min Rain = 0
KCO1 180423Z 05003KT 05/02 A302 RMK A01 T00500017  RH  079%=      5-min Rain = 0
KCO1 180424Z 06003KT 05/02 A302 RMK A01 T00500017  RH  079%=      5-min Rain = 0
KCO1 180425Z 06003KT 05/02 A302 RMK A01 T00500017  RH  079%=      5-min Rain = 0
KCO1 180426Z 06004KT 05/02 A302 RMK A01 T00500017  RH  079%=      5-min Rain = 0
KCO1 180427Z 06003KT 05/02 A302 RMK A01 T00500017  RH  079%=      5-min Rain = 0
KCO1 180428Z 07004KT 05/02 A3021 RMK A01 T00500017  RH  079%=      5-min Rain = 0
KCO1 180429Z 06004KT 05/02 A3021 RMK A01 T00500017  RH  079%=      5-min Rain = 0
KCO1 180430Z 06004KT 05/02 A302 RMK A01 T00510017  RH  079%=      5-min Rain = 0
KCO1 180431Z 06004KT 05/02 A302 RMK A01 T00510018  RH  079%=      5-min Rain = 0
KCO1 180432Z 06004KT 05/02 A302 RMK A01 T00510018  RH  079%=      5-min Rain = 0
KCO1 180433Z 06004KT 05/02 A302 RMK A01 T00510018  RH  079%=      5-min Rain = 0
KCO1 180434Z 06004KT 05/02 A302 RMK A01 T00510018  RH  079%=      5-min Rain = 0
KCO1 180435Z 06004KT 05/02 A302 RMK A01 T00510018  RH  079%=      5-min Rain = 0
KCO1 180436Z 06003KT 05/02 A3021 RMK A01 T00510018  RH  079%=      5-min Rain = 0
KCO1 180437Z 06004KT 05/02 A3021 RMK A01 T00510018  RH  079%=      5-min Rain = 0
KCO1 180438Z 06003KT 05/02 A3021 RMK A01 T00520018  RH  079%=      5-min Rain = 0
KCO1 180439Z 06003KT 05/02 A3021 RMK A01 T00520018  RH  079%=      5-min Rain = 0
KCO1 180440Z 06004KT 05/02 A3021 RMK A01 T00520018  RH  079%=      5-min Rain = 0
KCO1 180441Z 06004KT 05/02 A3021 RMK A01 T00520018  RH  079%=      5-min Rain = 0
KCO1 180442Z 07004KT 05/02 A3021 RMK A01 T00520018  RH  079%=      5-min Rain = 0
KCO1 180443Z 08004KT 05/02 A3021 RMK A01 T00520018  RH  079%=      5-min Rain = 0
KCO1 180444Z 08003KT 05/02 A3021 RMK A01 T00520018  RH  079%=      5-min Rain = 0
KCO1 180445Z 08003KT 05/02 A3021 RMK A01 T00520018  RH  079%=      5-min Rain = 0
KCO1 180446Z 09003KT 05/02 A3021 RMK A01 T00520019  RH  079%=      5-min Rain = 0
KCO1 180447Z 09003KT 05/02 A3021 RMK A01 T00520019  RH  079%=      5-min Rain = 0
KCO1 180448Z 09003KT 05/02 A3021 RMK A01 T00520020  RH  080%=      5-min Rain = 0
KCO1 180449Z 09003KT 05/02 A3021 RMK A01 T00520019  RH  079%=      5-min Rain = 0
KCO1 180450Z 10003KT 05/02 A3021 RMK A01 T00510018  RH  079%=      5-min Rain = 0
KCO1 180451Z 09003KT 05/02 A3021 RMK A01 T00500016  RH  079%=      5-min Rain = 0
KCO1 180452Z 10003KT 05/01 A3021 RMK A01 T00480013  RH  078%=      5-min Rain = 0
KCO1 180453Z 11003KT 05/01 A3021 RMK A01 T00470012  RH  078%=      5-min Rain = 0
KCO1 180454Z 11002KT 05/01 A3021 RMK A01 T00450011  RH  078%=      5-min Rain = 0
KCO1 180455Z 10002KT 04/01 A3021 RMK A01 T00440011  RH  079%=      5-min Rain = 0
KCO1 180456Z 10002KT 04/01 A3021 RMK A01 T00430010  RH  079%=      5-min Rain = 0
KCO1 180457Z 10002KT 04/01 A3021 RMK A01 T00430011  RH  079%=      5-min Rain = 0
KCO1 180458Z 09003KT 04/01 A3021 RMK A01 T00430011  RH  080%=      5-min Rain = 0
KCO1 180459Z 09003KT 04/01 A3021 RMK A01 T00430012  RH  081%=      5-min Rain = 0

Page generated in 0.0641 seconds.